<?xml version="1.0" encoding="UTF-8" standalone="no" ?><gpx xmlns="http://www.topografix.com/GPX/1/1" xmlns:gpxx="http://www.garmin.com/xmlschemas/GpxExtensions/v3" xmlns:wptx1="http://www.garmin.com/xmlschemas/WaypointExtension/v1" xmlns:gpxtpx="http://www.garmin.com/xmlschemas/TrackPointExtension/v1" creator="GuideVTT.com" version="1.1" xmlns:xsi="http://www.w3.org/2001/XMLSchema-instance" xsi:schemaLocation="http://www.topografix.com/GPX/1/1 http://www.topografix.com/GPX/1/1/gpx.xsd http://www.garmin.com/xmlschemas/GpxExtensions/v3 http://www8.garmin.com/xmlschemas/GpxExtensionsv3.xsd http://www.garmin.com/xmlschemas/WaypointExtension/v1 http://www8.garmin.com/xmlschemas/WaypointExtensionv1.xsd http://www.garmin.com/xmlschemas/TrackPointExtension/v1 http://www.garmin.com/xmlschemas/TrackPointExtensionv1.xsd">
<metadata><link href="http://www.garmin.com"><text>Garmin International</text></link><time>2013-06-22T15:13:50Z</time></metadata>
<trk><name>course_benou_1.gpx</name><extensions><gpxx:TrackExtension><gpxx:DisplayColor>Cyan</gpxx:DisplayColor></gpxx:TrackExtension></extensions><trkseg>
<trkpt lat="46.26967778" lon="7.30055669"><ele>840.32959</ele><time>2009-05-31T10:32:37Z</time></trkpt>
<trkpt lat="46.26967778" lon="7.30055669"><ele>840.32959</ele><time>2009-05-31T10:32:39Z</time></trkpt>
<trkpt lat="46.31218853" lon="7.53203963"><ele>841.290771</ele><time>2009-05-31T10:33:03Z</time></trkpt>
<trkpt lat="46.31220044" lon="7.53201297"><ele>844.655518</ele><time>2009-05-31T10:33:12Z</time></trkpt>
<trkpt lat="46.31220220" lon="7.53200887"><ele>848.020264</ele><time>2009-05-31T10:33:16Z</time></trkpt>
<trkpt lat="46.31220228" lon="7.53200702"><ele>848.020264</ele><time>2009-05-31T10:33:17Z</time></trkpt>
<trkpt lat="46.31221946" lon="7.53198464"><ele>850.904053</ele><time>2009-05-31T10:33:20Z</time></trkpt>
<trkpt lat="46.31227118" lon="7.53198146"><ele>854.268799</ele><time>2009-05-31T10:33:25Z</time></trkpt>
<trkpt lat="46.31228015" lon="7.53199085"><ele>854.749268</ele><time>2009-05-31T10:33:26Z</time></trkpt>
<trkpt lat="46.31232164" lon="7.53202848"><ele>857.152588</ele><time>2009-05-31T10:33:30Z</time></trkpt>
<trkpt lat="46.31236933" lon="7.53206025"><ele>859.075195</ele><time>2009-05-31T10:33:34Z</time></trkpt>
<trkpt lat="46.31243739" lon="7.53210015"><ele>861.959473</ele><time>2009-05-31T10:33:40Z</time></trkpt>
<trkpt lat="46.31245432" lon="7.53213082"><ele>863.401367</ele><time>2009-05-31T10:33:42Z</time></trkpt>
<trkpt lat="46.31261257" lon="7.53221649"><ele>866.765869</ele><time>2009-05-31T10:33:54Z</time></trkpt>
<trkpt lat="46.31266857" lon="7.53223618"><ele>867.727051</ele><time>2009-05-31T10:33:58Z</time></trkpt>
<trkpt lat="46.31286579" lon="7.53229788"><ele>869.649902</ele><time>2009-05-31T10:34:13Z</time></trkpt>
<trkpt lat="46.31301650" lon="7.53232964"><ele>871.091797</ele><time>2009-05-31T10:34:25Z</time></trkpt>
<trkpt lat="46.31316436" lon="7.53240382"><ele>870.611084</ele><time>2009-05-31T10:34:40Z</time></trkpt>
<trkpt lat="46.31333694" lon="7.53236384"><ele>872.052979</ele><time>2009-05-31T10:34:56Z</time></trkpt>
<trkpt lat="46.31343727" lon="7.53229427"><ele>872.052979</ele><time>2009-05-31T10:35:09Z</time></trkpt>
<trkpt lat="46.31346392" lon="7.53220526"><ele>873.975586</ele><time>2009-05-31T10:35:28Z</time></trkpt>
<trkpt lat="46.31342512" lon="7.53226980"><ele>873.975586</ele><time>2009-05-31T10:35:35Z</time></trkpt>
<trkpt lat="46.31345957" lon="7.53215195"><ele>875.898193</ele><time>2009-05-31T10:35:44Z</time></trkpt>
<trkpt lat="46.31345529" lon="7.53213543"><ele>877.821045</ele><time>2009-05-31T10:35:49Z</time></trkpt>
<trkpt lat="46.31345680" lon="7.53211917"><ele>880.224365</ele><time>2009-05-31T10:35:59Z</time></trkpt>
<trkpt lat="46.31342998" lon="7.53197283"><ele>883.588867</ele><time>2009-05-31T10:36:10Z</time></trkpt>
<trkpt lat="46.31346158" lon="7.53180309"><ele>885.992188</ele><time>2009-05-31T10:36:22Z</time></trkpt>
<trkpt lat="46.31346283" lon="7.53171827"><ele>887.434082</ele><time>2009-05-31T10:36:26Z</time></trkpt>
<trkpt lat="46.31344523" lon="7.53162255"><ele>890.798584</ele><time>2009-05-31T10:36:36Z</time></trkpt>
<trkpt lat="46.31343853" lon="7.53162464"><ele>890.798584</ele><time>2009-05-31T10:36:37Z</time></trkpt>
<trkpt lat="46.31338329" lon="7.53165683"><ele>892.72168</ele><time>2009-05-31T10:36:43Z</time></trkpt>
<trkpt lat="46.31328086" lon="7.53156790"><ele>894.644043</ele><time>2009-05-31T10:36:56Z</time></trkpt>
<trkpt lat="46.31319126" lon="7.53150067"><ele>896.086182</ele><time>2009-05-31T10:37:03Z</time></trkpt>
<trkpt lat="46.31310015" lon="7.53144812"><ele>896.566895</ele><time>2009-05-31T10:37:13Z</time></trkpt>
<trkpt lat="46.31311423" lon="7.53142457"><ele>896.566895</ele><time>2009-05-31T10:37:14Z</time></trkpt>
<trkpt lat="46.31310987" lon="7.53139204"><ele>899.450684</ele><time>2009-05-31T10:37:22Z</time></trkpt>
<trkpt lat="46.31312228" lon="7.53131929"><ele>901.854004</ele><time>2009-05-31T10:37:31Z</time></trkpt>
<trkpt lat="46.31314927" lon="7.53122449"><ele>902.334473</ele><time>2009-05-31T10:37:42Z</time></trkpt>
<trkpt lat="46.31311113" lon="7.53112122"><ele>902.334473</ele><time>2009-05-31T10:37:46Z</time></trkpt>
<trkpt lat="46.31300275" lon="7.53106515"><ele>902.334473</ele><time>2009-05-31T10:37:50Z</time></trkpt>
<trkpt lat="46.31270486" lon="7.53118945"><ele>901.854004</ele><time>2009-05-31T10:38:01Z</time></trkpt>
<trkpt lat="46.31262062" lon="7.53118149"><ele>901.854004</ele><time>2009-05-31T10:38:06Z</time></trkpt>
<trkpt lat="46.31244997" lon="7.53101989"><ele>901.854004</ele><time>2009-05-31T10:38:16Z</time></trkpt>
<trkpt lat="46.31233539" lon="7.53091922"><ele>901.373291</ele><time>2009-05-31T10:38:22Z</time></trkpt>
<trkpt lat="46.31227847" lon="7.53087790"><ele>901.373291</ele><time>2009-05-31T10:38:25Z</time></trkpt>
<trkpt lat="46.31216674" lon="7.53056542"><ele>901.854004</ele><time>2009-05-31T10:38:36Z</time></trkpt>
<trkpt lat="46.31214738" lon="7.53055427"><ele>901.373291</ele><time>2009-05-31T10:38:37Z</time></trkpt>
<trkpt lat="46.31207672" lon="7.53046534"><ele>899.450684</ele><time>2009-05-31T10:38:41Z</time></trkpt>
<trkpt lat="46.31188159" lon="7.53031597"><ele>897.528076</ele><time>2009-05-31T10:38:52Z</time></trkpt>
<trkpt lat="46.31175108" lon="7.53034607"><ele>897.528076</ele><time>2009-05-31T10:39:01Z</time></trkpt>
<trkpt lat="46.31163223" lon="7.53023366"><ele>896.566895</ele><time>2009-05-31T10:39:10Z</time></trkpt>
<trkpt lat="46.31158856" lon="7.53020676"><ele>896.566895</ele><time>2009-05-31T10:39:13Z</time></trkpt>
<trkpt lat="46.31150348" lon="7.53006670"><ele>895.605469</ele><time>2009-05-31T10:39:20Z</time></trkpt>
<trkpt lat="46.31143207" lon="7.52993678"><ele>895.605469</ele><time>2009-05-31T10:39:26Z</time></trkpt>
<trkpt lat="46.31133400" lon="7.52987576"><ele>895.605469</ele><time>2009-05-31T10:39:31Z</time></trkpt>
<trkpt lat="46.31126242" lon="7.52977727"><ele>895.124756</ele><time>2009-05-31T10:39:35Z</time></trkpt>
<trkpt lat="46.31118338" lon="7.52964953"><ele>895.124756</ele><time>2009-05-31T10:39:40Z</time></trkpt>
<trkpt lat="46.31106620" lon="7.52959278"><ele>894.644043</ele><time>2009-05-31T10:39:45Z</time></trkpt>
<trkpt lat="46.31104155" lon="7.52949773"><ele>894.163574</ele><time>2009-05-31T10:39:48Z</time></trkpt>
<trkpt lat="46.31101809" lon="7.52920688"><ele>893.682861</ele><time>2009-05-31T10:39:55Z</time></trkpt>
<trkpt lat="46.31089512" lon="7.52922507"><ele>894.163574</ele><time>2009-05-31T10:39:59Z</time></trkpt>
<trkpt lat="46.31065733" lon="7.52929456"><ele>893.202148</ele><time>2009-05-31T10:40:09Z</time></trkpt>
<trkpt lat="46.31056982" lon="7.52929615"><ele>892.72168</ele><time>2009-05-31T10:40:13Z</time></trkpt>
<trkpt lat="46.31048022" lon="7.52923069"><ele>894.644043</ele><time>2009-05-31T10:40:19Z</time></trkpt>
<trkpt lat="46.31044309" lon="7.52921199"><ele>897.528076</ele><time>2009-05-31T10:40:22Z</time></trkpt>
<trkpt lat="46.31038207" lon="7.52895794"><ele>897.528076</ele><time>2009-05-31T10:40:30Z</time></trkpt>
<trkpt lat="46.31036052" lon="7.52882400"><ele>898.008789</ele><time>2009-05-31T10:40:34Z</time></trkpt>
<trkpt lat="46.31032918" lon="7.52868318"><ele>899.450684</ele><time>2009-05-31T10:40:38Z</time></trkpt>
<trkpt lat="46.31029808" lon="7.52849283"><ele>901.373291</ele><time>2009-05-31T10:40:46Z</time></trkpt>
<trkpt lat="46.31031317" lon="7.52845494"><ele>901.373291</ele><time>2009-05-31T10:40:47Z</time></trkpt>
<trkpt lat="46.31033119" lon="7.52834606"><ele>903.295898</ele><time>2009-05-31T10:40:51Z</time></trkpt>
<trkpt lat="46.31032314" lon="7.52836685"><ele>903.776611</ele><time>2009-05-31T10:40:54Z</time></trkpt>
<trkpt lat="46.31043303" lon="7.52829409"><ele>904.737793</ele><time>2009-05-31T10:41:06Z</time></trkpt>
<trkpt lat="46.31044116" lon="7.52831178"><ele>904.737793</ele><time>2009-05-31T10:41:08Z</time></trkpt>
<trkpt lat="46.31046656" lon="7.52839694"><ele>905.699219</ele><time>2009-05-31T10:41:14Z</time></trkpt>
<trkpt lat="46.31050226" lon="7.52845536"><ele>905.699219</ele><time>2009-05-31T10:41:18Z</time></trkpt>
<trkpt lat="46.31069454" lon="7.52858419"><ele>907.621826</ele><time>2009-05-31T10:41:30Z</time></trkpt>
<trkpt lat="46.31086143" lon="7.52877655"><ele>910.505859</ele><time>2009-05-31T10:41:42Z</time></trkpt>
<trkpt lat="46.31108204" lon="7.52888057"><ele>912.90918</ele><time>2009-05-31T10:41:55Z</time></trkpt>
<trkpt lat="46.31124565" lon="7.52900085"><ele>913.389893</ele><time>2009-05-31T10:42:05Z</time></trkpt>
<trkpt lat="46.31129754" lon="7.52908828"><ele>914.831787</ele><time>2009-05-31T10:42:10Z</time></trkpt>
<trkpt lat="46.31134263" lon="7.52917419"><ele>915.3125</ele><time>2009-05-31T10:42:14Z</time></trkpt>
<trkpt lat="46.31158562" lon="7.52928785"><ele>917.235107</ele><time>2009-05-31T10:42:26Z</time></trkpt>
<trkpt lat="46.31187706" lon="7.52925483"><ele>918.677002</ele><time>2009-05-31T10:42:38Z</time></trkpt>
<trkpt lat="46.31212173" lon="7.52936488"><ele>920.599609</ele><time>2009-05-31T10:42:50Z</time></trkpt>
<trkpt lat="46.31226146" lon="7.52961902"><ele>921.560791</ele><time>2009-05-31T10:43:02Z</time></trkpt>
<trkpt lat="46.31241736" lon="7.52980376"><ele>924.445068</ele><time>2009-05-31T10:43:14Z</time></trkpt>
<trkpt lat="46.31257083" lon="7.52956429"><ele>924.445068</ele><time>2009-05-31T10:43:26Z</time></trkpt>
<trkpt lat="46.31264753" lon="7.52942062"><ele>923.964111</ele><time>2009-05-31T10:43:30Z</time></trkpt>
<trkpt lat="46.31270637" lon="7.52930143"><ele>924.445068</ele><time>2009-05-31T10:43:37Z</time></trkpt>
<trkpt lat="46.31299580" lon="7.52932984"><ele>926.367676</ele><time>2009-05-31T10:43:49Z</time></trkpt>
<trkpt lat="46.31321297" lon="7.52935264"><ele>927.329102</ele><time>2009-05-31T10:44:00Z</time></trkpt>
<trkpt lat="46.31330224" lon="7.52947267"><ele>928.290283</ele><time>2009-05-31T10:44:12Z</time></trkpt>
<trkpt lat="46.31365646" lon="7.52928383"><ele>928.770996</ele><time>2009-05-31T10:44:26Z</time></trkpt>
<trkpt lat="46.31390498" lon="7.52922926"><ele>929.732178</ele><time>2009-05-31T10:44:37Z</time></trkpt>
<trkpt lat="46.31410522" lon="7.52922197"><ele>930.212891</ele><time>2009-05-31T10:44:47Z</time></trkpt>
<trkpt lat="46.31434796" lon="7.52914310"><ele>931.174316</ele><time>2009-05-31T10:44:56Z</time></trkpt>
<trkpt lat="46.31463018" lon="7.52912424"><ele>931.654785</ele><time>2009-05-31T10:45:09Z</time></trkpt>
<trkpt lat="46.31489078" lon="7.52920873"><ele>931.654785</ele><time>2009-05-31T10:45:22Z</time></trkpt>
<trkpt lat="46.31516939" lon="7.52919464"><ele>930.693604</ele><time>2009-05-31T10:45:33Z</time></trkpt>
<trkpt lat="46.31532454" lon="7.52943529"><ele>930.212891</ele><time>2009-05-31T10:45:45Z</time></trkpt>
<trkpt lat="46.31566828" lon="7.52925835"><ele>930.212891</ele><time>2009-05-31T10:45:56Z</time></trkpt>
<trkpt lat="46.31595293" lon="7.52907470"><ele>928.770996</ele><time>2009-05-31T10:46:06Z</time></trkpt>
<trkpt lat="46.31622660" lon="7.52899876"><ele>929.732178</ele><time>2009-05-31T10:46:17Z</time></trkpt>
<trkpt lat="46.31626809" lon="7.52900303"><ele>929.732178</ele><time>2009-05-31T10:46:19Z</time></trkpt>
<trkpt lat="46.31633749" lon="7.52899474"><ele>930.693604</ele><time>2009-05-31T10:46:23Z</time></trkpt>
<trkpt lat="46.31649717" lon="7.52889784"><ele>930.693604</ele><time>2009-05-31T10:46:28Z</time></trkpt>
<trkpt lat="46.31668123" lon="7.52880095"><ele>931.654785</ele><time>2009-05-31T10:46:37Z</time></trkpt>
<trkpt lat="46.31687134" lon="7.52897462"><ele>933.577393</ele><time>2009-05-31T10:46:49Z</time></trkpt>
<trkpt lat="46.31697955" lon="7.52904176"><ele>934.058105</ele><time>2009-05-31T10:46:54Z</time></trkpt>
<trkpt lat="46.31725154" lon="7.52926623"><ele>934.058105</ele><time>2009-05-31T10:47:08Z</time></trkpt>
<trkpt lat="46.31745388" lon="7.52926899"><ele>936.461426</ele><time>2009-05-31T10:47:19Z</time></trkpt>
<trkpt lat="46.31772235" lon="7.52910588"><ele>939.825928</ele><time>2009-05-31T10:47:36Z</time></trkpt>
<trkpt lat="46.31781614" lon="7.52902307"><ele>940.306885</ele><time>2009-05-31T10:47:42Z</time></trkpt>
<trkpt lat="46.31809057" lon="7.52890178"><ele>942.710205</ele><time>2009-05-31T10:47:56Z</time></trkpt>
<trkpt lat="46.31833088" lon="7.52883783"><ele>944.1521</ele><time>2009-05-31T10:48:09Z</time></trkpt>
<trkpt lat="46.31834915" lon="7.52883087"><ele>944.632568</ele><time>2009-05-31T10:48:10Z</time></trkpt>
<trkpt lat="46.31842073" lon="7.52879533"><ele>945.113281</ele><time>2009-05-31T10:48:14Z</time></trkpt>
<trkpt lat="46.31849902" lon="7.52869483"><ele>946.55542</ele><time>2009-05-31T10:48:20Z</time></trkpt>
<trkpt lat="46.31852718" lon="7.52865485"><ele>947.035889</ele><time>2009-05-31T10:48:22Z</time></trkpt>
<trkpt lat="46.31863967" lon="7.52849794"><ele>948.477783</ele><time>2009-05-31T10:48:30Z</time></trkpt>
<trkpt lat="46.31877797" lon="7.52822570"><ele>951.842529</ele><time>2009-05-31T10:48:43Z</time></trkpt>
<trkpt lat="46.31885039" lon="7.52807625"><ele>953.765137</ele><time>2009-05-31T10:48:50Z</time></trkpt>
<trkpt lat="46.31888056" lon="7.52802663"><ele>953.765137</ele><time>2009-05-31T10:48:53Z</time></trkpt>
<trkpt lat="46.31894259" lon="7.52791783"><ele>954.24585</ele><time>2009-05-31T10:48:58Z</time></trkpt>
<trkpt lat="46.31897737" lon="7.52784868"><ele>954.726318</ele><time>2009-05-31T10:49:01Z</time></trkpt>
<trkpt lat="46.31912188" lon="7.52763100"><ele>955.687744</ele><time>2009-05-31T10:49:11Z</time></trkpt>
<trkpt lat="46.31914099" lon="7.52757903"><ele>956.64917</ele><time>2009-05-31T10:49:13Z</time></trkpt>
<trkpt lat="46.31922363" lon="7.52731048"><ele>958.571777</ele><time>2009-05-31T10:49:24Z</time></trkpt>
<trkpt lat="46.31928105" lon="7.52698367"><ele>960.975098</ele><time>2009-05-31T10:49:35Z</time></trkpt>
<trkpt lat="46.31931332" lon="7.52691083"><ele>961.455811</ele><time>2009-05-31T10:49:38Z</time></trkpt>
<trkpt lat="46.31940175" lon="7.52677085"><ele>962.897705</ele><time>2009-05-31T10:49:50Z</time></trkpt>
<trkpt lat="46.31941038" lon="7.52676079"><ele>963.378418</ele><time>2009-05-31T10:49:51Z</time></trkpt>
<trkpt lat="46.31962454" lon="7.52648519"><ele>965.781738</ele><time>2009-05-31T10:50:05Z</time></trkpt>
<trkpt lat="46.31968078" lon="7.52640196"><ele>966.74292</ele><time>2009-05-31T10:50:09Z</time></trkpt>
<trkpt lat="46.31979327" lon="7.52628369"><ele>966.262207</ele><time>2009-05-31T10:50:21Z</time></trkpt>
<trkpt lat="46.31988128" lon="7.52617565"><ele>965.781738</ele><time>2009-05-31T10:50:45Z</time></trkpt>
<trkpt lat="46.32005084" lon="7.52590885"><ele>965.301025</ele><time>2009-05-31T10:50:55Z</time></trkpt>
<trkpt lat="46.32014028" lon="7.52582696"><ele>965.301025</ele><time>2009-05-31T10:51:01Z</time></trkpt>
<trkpt lat="46.32027766" lon="7.52598144"><ele>966.262207</ele><time>2009-05-31T10:51:09Z</time></trkpt>
<trkpt lat="46.32029576" lon="7.52603626"><ele>965.781738</ele><time>2009-05-31T10:51:11Z</time></trkpt>
<trkpt lat="46.32034413" lon="7.52611798"><ele>967.223633</ele><time>2009-05-31T10:51:15Z</time></trkpt>
<trkpt lat="46.32042032" lon="7.52619392"><ele>969.626953</ele><time>2009-05-31T10:51:20Z</time></trkpt>
<trkpt lat="46.32046675" lon="7.52625058"><ele>969.626953</ele><time>2009-05-31T10:51:24Z</time></trkpt>
<trkpt lat="46.32048829" lon="7.52627087"><ele>970.107422</ele><time>2009-05-31T10:51:26Z</time></trkpt>
<trkpt lat="46.32054823" lon="7.52630046"><ele>971.549316</ele><time>2009-05-31T10:51:30Z</time></trkpt>
<trkpt lat="46.32060455" lon="7.52630658"><ele>973.472412</ele><time>2009-05-31T10:51:33Z</time></trkpt>
<trkpt lat="46.32082407" lon="7.52636123"><ele>975.875488</ele><time>2009-05-31T10:51:45Z</time></trkpt>
<trkpt lat="46.32096455" lon="7.52650363"><ele>977.798096</ele><time>2009-05-31T10:51:56Z</time></trkpt>
<trkpt lat="46.32112339" lon="7.52665266"><ele>979.720703</ele><time>2009-05-31T10:52:06Z</time></trkpt>
<trkpt lat="46.32121752" lon="7.52691669"><ele>983.085205</ele><time>2009-05-31T10:52:20Z</time></trkpt>
<trkpt lat="46.32126404" lon="7.52712809"><ele>985.488525</ele><time>2009-05-31T10:52:32Z</time></trkpt>
<trkpt lat="46.32127083" lon="7.52722087"><ele>986.93042</ele><time>2009-05-31T10:52:36Z</time></trkpt>
<trkpt lat="46.32134509" lon="7.52741693"><ele>989.333984</ele><time>2009-05-31T10:52:46Z</time></trkpt>
<trkpt lat="46.32135062" lon="7.52751332"><ele>991.256592</ele><time>2009-05-31T10:52:51Z</time></trkpt>
<trkpt lat="46.32134543" lon="7.52760242"><ele>991.737305</ele><time>2009-05-31T10:52:55Z</time></trkpt>
<trkpt lat="46.32138373" lon="7.52773468"><ele>993.659912</ele><time>2009-05-31T10:53:02Z</time></trkpt>
<trkpt lat="46.32146630" lon="7.52784155"><ele>995.101807</ele><time>2009-05-31T10:53:09Z</time></trkpt>
<trkpt lat="46.32165095" lon="7.52790609"><ele>997.98584</ele><time>2009-05-31T10:53:23Z</time></trkpt>
<trkpt lat="46.32176938" lon="7.52792437"><ele>1000.869629</ele><time>2009-05-31T10:53:30Z</time></trkpt>
<trkpt lat="46.32195354" lon="7.52796267"><ele>1003.753662</ele><time>2009-05-31T10:53:42Z</time></trkpt>
<trkpt lat="46.32210474" lon="7.52802755"><ele>1005.195801</ele><time>2009-05-31T10:53:55Z</time></trkpt>
<trkpt lat="46.32211908" lon="7.52803937"><ele>1005.676514</ele><time>2009-05-31T10:53:56Z</time></trkpt>
<trkpt lat="46.32222368" lon="7.52809368"><ele>1009.041016</ele><time>2009-05-31T10:54:08Z</time></trkpt>
<trkpt lat="46.32227708" lon="7.52804708"><ele>1009.521729</ele><time>2009-05-31T10:54:11Z</time></trkpt>
<trkpt lat="46.32238093" lon="7.52794893"><ele>1011.444336</ele><time>2009-05-31T10:54:20Z</time></trkpt>
<trkpt lat="46.32246056" lon="7.52790584"><ele>1014.808838</ele><time>2009-05-31T10:54:29Z</time></trkpt>
<trkpt lat="46.32262283" lon="7.52782119"><ele>1016.731445</ele><time>2009-05-31T10:54:40Z</time></trkpt>
<trkpt lat="46.32270179" lon="7.52775447"><ele>1019.615479</ele><time>2009-05-31T10:54:48Z</time></trkpt>
<trkpt lat="46.32276616" lon="7.52771448"><ele>1020.576904</ele><time>2009-05-31T10:54:52Z</time></trkpt>
<trkpt lat="46.32284939" lon="7.52760996"><ele>1021.538086</ele><time>2009-05-31T10:54:58Z</time></trkpt>
<trkpt lat="46.32289566" lon="7.52749840"><ele>1021.538086</ele><time>2009-05-31T10:55:02Z</time></trkpt>
<trkpt lat="46.32289843" lon="7.52748365"><ele>1021.538086</ele><time>2009-05-31T10:55:19Z</time></trkpt>
<trkpt lat="46.32299557" lon="7.52734375"><ele>1022.018799</ele><time>2009-05-31T10:55:35Z</time></trkpt>
<trkpt lat="46.32300848" lon="7.52734819"><ele>1022.018799</ele><time>2009-05-31T10:55:38Z</time></trkpt>
<trkpt lat="46.32308040" lon="7.52742967"><ele>1022.018799</ele><time>2009-05-31T10:55:45Z</time></trkpt>
<trkpt lat="46.32315156" lon="7.52742162"><ele>1021.057617</ele><time>2009-05-31T10:55:51Z</time></trkpt>
<trkpt lat="46.32322356" lon="7.52746688"><ele>1020.576904</ele><time>2009-05-31T10:55:55Z</time></trkpt>
<trkpt lat="46.32341668" lon="7.52761792"><ele>1020.576904</ele><time>2009-05-31T10:56:07Z</time></trkpt>
<trkpt lat="46.32356915" lon="7.52768758"><ele>1022.018799</ele><time>2009-05-31T10:56:16Z</time></trkpt>
<trkpt lat="46.32359982" lon="7.52767744"><ele>1022.980225</ele><time>2009-05-31T10:56:18Z</time></trkpt>
<trkpt lat="46.32372907" lon="7.52760845"><ele>1024.422119</ele><time>2009-05-31T10:56:26Z</time></trkpt>
<trkpt lat="46.32382438" lon="7.52762714"><ele>1028.267334</ele><time>2009-05-31T10:56:34Z</time></trkpt>
<trkpt lat="46.32384676" lon="7.52761289"><ele>1028.267334</ele><time>2009-05-31T10:56:37Z</time></trkpt>
<trkpt lat="46.32374567" lon="7.52778330"><ele>1025.383301</ele><time>2009-05-31T10:56:48Z</time></trkpt>
<trkpt lat="46.32369119" lon="7.52802872"><ele>1025.864014</ele><time>2009-05-31T10:56:58Z</time></trkpt>
<trkpt lat="46.32370502" lon="7.52811128"><ele>1025.864014</ele><time>2009-05-31T10:57:01Z</time></trkpt>
<trkpt lat="46.32372824" lon="7.52827255"><ele>1026.825439</ele><time>2009-05-31T10:57:06Z</time></trkpt>
<trkpt lat="46.32372539" lon="7.52835830"><ele>1027.306152</ele><time>2009-05-31T10:57:08Z</time></trkpt>
<trkpt lat="46.32377006" lon="7.52849207"><ele>1026.825439</ele><time>2009-05-31T10:57:13Z</time></trkpt>
<trkpt lat="46.32383142" lon="7.52857279"><ele>1028.267334</ele><time>2009-05-31T10:57:17Z</time></trkpt>
<trkpt lat="46.32388204" lon="7.52884436"><ele>1030.670654</ele><time>2009-05-31T10:57:27Z</time></trkpt>
<trkpt lat="46.32390325" lon="7.52890756"><ele>1033.07373</ele><time>2009-05-31T10:57:31Z</time></trkpt>
<trkpt lat="46.32392102" lon="7.52901108"><ele>1034.515869</ele><time>2009-05-31T10:57:37Z</time></trkpt>
<trkpt lat="46.32394164" lon="7.52904436"><ele>1035.477051</ele><time>2009-05-31T10:57:39Z</time></trkpt>
<trkpt lat="46.32404767" lon="7.52919942"><ele>1037.880615</ele><time>2009-05-31T10:57:48Z</time></trkpt>
<trkpt lat="46.32405915" lon="7.52926044"><ele>1038.361328</ele><time>2009-05-31T10:57:52Z</time></trkpt>
<trkpt lat="46.32407902" lon="7.52937385"><ele>1038.842041</ele><time>2009-05-31T10:57:56Z</time></trkpt>
<trkpt lat="46.32407575" lon="7.52948759"><ele>1041.245117</ele><time>2009-05-31T10:58:01Z</time></trkpt>
<trkpt lat="46.32406116" lon="7.52952866"><ele>1042.206543</ele><time>2009-05-31T10:58:03Z</time></trkpt>
<trkpt lat="46.32406175" lon="7.52958423"><ele>1043.167725</ele><time>2009-05-31T10:58:05Z</time></trkpt>
<trkpt lat="46.32406938" lon="7.52965137"><ele>1044.12915</ele><time>2009-05-31T10:58:07Z</time></trkpt>
<trkpt lat="46.32409712" lon="7.52972027"><ele>1044.609619</ele><time>2009-05-31T10:58:10Z</time></trkpt>
<trkpt lat="46.32412964" lon="7.52977618"><ele>1045.090332</ele><time>2009-05-31T10:58:14Z</time></trkpt>
<trkpt lat="46.32411716" lon="7.52994047"><ele>1047.974365</ele><time>2009-05-31T10:58:22Z</time></trkpt>
<trkpt lat="46.32419636" lon="7.53017575"><ele>1050.377686</ele><time>2009-05-31T10:58:34Z</time></trkpt>
<trkpt lat="46.32420885" lon="7.53024263"><ele>1051.81958</ele><time>2009-05-31T10:58:37Z</time></trkpt>
<trkpt lat="46.32421757" lon="7.53032528"><ele>1052.781006</ele><time>2009-05-31T10:58:41Z</time></trkpt>
<trkpt lat="46.32421707" lon="7.53038060"><ele>1054.223145</ele><time>2009-05-31T10:58:44Z</time></trkpt>
<trkpt lat="46.32424942" lon="7.53051035"><ele>1055.665039</ele><time>2009-05-31T10:58:50Z</time></trkpt>
<trkpt lat="46.32433576" lon="7.53056190"><ele>1057.587646</ele><time>2009-05-31T10:58:55Z</time></trkpt>
<trkpt lat="46.32443072" lon="7.53073390"><ele>1060.471436</ele><time>2009-05-31T10:59:07Z</time></trkpt>
<trkpt lat="46.32444103" lon="7.53081143"><ele>1061.913574</ele><time>2009-05-31T10:59:12Z</time></trkpt>
<trkpt lat="46.32441547" lon="7.53089810"><ele>1061.913574</ele><time>2009-05-31T10:59:16Z</time></trkpt>
<trkpt lat="46.32442234" lon="7.53095719"><ele>1062.874756</ele><time>2009-05-31T10:59:19Z</time></trkpt>
<trkpt lat="46.32441907" lon="7.53100312"><ele>1064.31665</ele><time>2009-05-31T10:59:21Z</time></trkpt>
<trkpt lat="46.32440415" lon="7.53109273"><ele>1064.797363</ele><time>2009-05-31T10:59:25Z</time></trkpt>
<trkpt lat="46.32440683" lon="7.53126112"><ele>1066.719971</ele><time>2009-05-31T10:59:38Z</time></trkpt>
<trkpt lat="46.32439535" lon="7.53128534"><ele>1063.835938</ele><time>2009-05-31T10:59:45Z</time></trkpt>
<trkpt lat="46.32438839" lon="7.53128618"><ele>1068.162109</ele><time>2009-05-31T10:59:46Z</time></trkpt>
<trkpt lat="46.32439275" lon="7.53127822"><ele>1066.239258</ele><time>2009-05-31T10:59:47Z</time></trkpt>
<trkpt lat="46.32437356" lon="7.53132029"><ele>1067.681152</ele><time>2009-05-31T11:00:09Z</time></trkpt>
<trkpt lat="46.32437197" lon="7.53133169"><ele>1061.913574</ele><time>2009-05-31T11:00:21Z</time></trkpt>
<trkpt lat="46.32437088" lon="7.53133077"><ele>1068.642822</ele><time>2009-05-31T11:00:22Z</time></trkpt>
<trkpt lat="46.32436979" lon="7.53132993"><ele>1063.835938</ele><time>2009-05-31T11:00:23Z</time></trkpt>
<trkpt lat="46.32437163" lon="7.53133270"><ele>1072.96875</ele><time>2009-05-31T11:00:24Z</time></trkpt>
<trkpt lat="46.32437155" lon="7.53133656"><ele>1067.681152</ele><time>2009-05-31T11:00:25Z</time></trkpt>
<trkpt lat="46.32441647" lon="7.53141618"><ele>1067.200684</ele><time>2009-05-31T11:00:53Z</time></trkpt>
<trkpt lat="46.32442427" lon="7.53142364"><ele>1067.681152</ele><time>2009-05-31T11:00:54Z</time></trkpt>
<trkpt lat="46.32455092" lon="7.53150654"><ele>1067.200684</ele><time>2009-05-31T11:01:01Z</time></trkpt>
<trkpt lat="46.32460582" lon="7.53153630"><ele>1067.200684</ele><time>2009-05-31T11:01:05Z</time></trkpt>
<trkpt lat="46.32467447" lon="7.53163135"><ele>1066.719971</ele><time>2009-05-31T11:01:10Z</time></trkpt>
<trkpt lat="46.32475896" lon="7.53180452"><ele>1067.200684</ele><time>2009-05-31T11:01:19Z</time></trkpt>
<trkpt lat="46.32471940" lon="7.53185137"><ele>1069.123535</ele><time>2009-05-31T11:01:22Z</time></trkpt>
<trkpt lat="46.32466785" lon="7.53198557"><ele>1071.046143</ele><time>2009-05-31T11:01:26Z</time></trkpt>
<trkpt lat="46.32464429" lon="7.53209746"><ele>1071.526611</ele><time>2009-05-31T11:01:30Z</time></trkpt>
<trkpt lat="46.32468805" lon="7.53227214"><ele>1071.046143</ele><time>2009-05-31T11:01:36Z</time></trkpt>
<trkpt lat="46.32484630" lon="7.53250860"><ele>1071.526611</ele><time>2009-05-31T11:01:47Z</time></trkpt>
<trkpt lat="46.32486323" lon="7.53273969"><ele>1072.96875</ele><time>2009-05-31T11:01:55Z</time></trkpt>
<trkpt lat="46.32485820" lon="7.53279383"><ele>1073.449463</ele><time>2009-05-31T11:01:57Z</time></trkpt>
<trkpt lat="46.32489307" lon="7.53292568"><ele>1072.488037</ele><time>2009-05-31T11:02:01Z</time></trkpt>
<trkpt lat="46.32495870" lon="7.53305627"><ele>1071.526611</ele><time>2009-05-31T11:02:06Z</time></trkpt>
<trkpt lat="46.32503707" lon="7.53325526"><ele>1070.084717</ele><time>2009-05-31T11:02:12Z</time></trkpt>
<trkpt lat="46.32506314" lon="7.53331795"><ele>1070.084717</ele><time>2009-05-31T11:02:14Z</time></trkpt>
<trkpt lat="46.32506766" lon="7.53343404"><ele>1068.162109</ele><time>2009-05-31T11:02:23Z</time></trkpt>
<trkpt lat="46.32491813" lon="7.53364493"><ele>1070.084717</ele><time>2009-05-31T11:02:33Z</time></trkpt>
<trkpt lat="46.32491075" lon="7.53372833"><ele>1071.526611</ele><time>2009-05-31T11:02:36Z</time></trkpt>
<trkpt lat="46.32490975" lon="7.53399043"><ele>1074.410645</ele><time>2009-05-31T11:02:47Z</time></trkpt>
<trkpt lat="46.32489047" lon="7.53406168"><ele>1074.891357</ele><time>2009-05-31T11:02:50Z</time></trkpt>
<trkpt lat="46.32488544" lon="7.53410786"><ele>1074.410645</ele><time>2009-05-31T11:03:12Z</time></trkpt>
<trkpt lat="46.32492593" lon="7.53425488"><ele>1074.891357</ele><time>2009-05-31T11:03:36Z</time></trkpt>
<trkpt lat="46.32493146" lon="7.53430475"><ele>1075.852539</ele><time>2009-05-31T11:03:39Z</time></trkpt>
<trkpt lat="46.32493406" lon="7.53434993"><ele>1075.852539</ele><time>2009-05-31T11:03:41Z</time></trkpt>
<trkpt lat="46.32485518" lon="7.53468722"><ele>1076.813965</ele><time>2009-05-31T11:03:53Z</time></trkpt>
<trkpt lat="46.32483004" lon="7.53495796"><ele>1076.813965</ele><time>2009-05-31T11:04:00Z</time></trkpt>
<trkpt lat="46.32485694" lon="7.53529399"><ele>1078.255859</ele><time>2009-05-31T11:04:11Z</time></trkpt>
<trkpt lat="46.32487832" lon="7.53534059"><ele>1078.736572</ele><time>2009-05-31T11:04:13Z</time></trkpt>
<trkpt lat="46.32488242" lon="7.53543212"><ele>1078.255859</ele><time>2009-05-31T11:04:17Z</time></trkpt>
<trkpt lat="46.32486658" lon="7.53559012"><ele>1079.697754</ele><time>2009-05-31T11:04:22Z</time></trkpt>
<trkpt lat="46.32485426" lon="7.53582104"><ele>1081.139893</ele><time>2009-05-31T11:04:33Z</time></trkpt>
<trkpt lat="46.32480556" lon="7.53595985"><ele>1083.542969</ele><time>2009-05-31T11:04:42Z</time></trkpt>
<trkpt lat="46.32476776" lon="7.53606169"><ele>1084.985352</ele><time>2009-05-31T11:04:45Z</time></trkpt>
<trkpt lat="46.32477086" lon="7.53632379"><ele>1084.504639</ele><time>2009-05-31T11:04:54Z</time></trkpt>
<trkpt lat="46.32478838" lon="7.53643569"><ele>1085.46582</ele><time>2009-05-31T11:04:58Z</time></trkpt>
<trkpt lat="46.32481537" lon="7.53655454"><ele>1084.023926</ele><time>2009-05-31T11:05:02Z</time></trkpt>
<trkpt lat="46.32481730" lon="7.53668253"><ele>1083.062256</ele><time>2009-05-31T11:05:07Z</time></trkpt>
<trkpt lat="46.32473222" lon="7.53683609"><ele>1084.504639</ele><time>2009-05-31T11:05:12Z</time></trkpt>
<trkpt lat="46.32472744" lon="7.53687062"><ele>1085.46582</ele><time>2009-05-31T11:05:13Z</time></trkpt>
<trkpt lat="46.32471303" lon="7.53712493"><ele>1085.946533</ele><time>2009-05-31T11:05:21Z</time></trkpt>
<trkpt lat="46.32471059" lon="7.53724328"><ele>1086.907715</ele><time>2009-05-31T11:05:25Z</time></trkpt>
<trkpt lat="46.32473348" lon="7.53739784"><ele>1087.388428</ele><time>2009-05-31T11:05:30Z</time></trkpt>
<trkpt lat="46.32473968" lon="7.53745845"><ele>1087.388428</ele><time>2009-05-31T11:05:32Z</time></trkpt>
<trkpt lat="46.32469459" lon="7.53761728"><ele>1088.349854</ele><time>2009-05-31T11:05:39Z</time></trkpt>
<trkpt lat="46.32462510" lon="7.53781225"><ele>1088.830566</ele><time>2009-05-31T11:05:46Z</time></trkpt>
<trkpt lat="46.32458939" lon="7.53805624"><ele>1089.791748</ele><time>2009-05-31T11:05:52Z</time></trkpt>
<trkpt lat="46.32458562" lon="7.53819538"><ele>1090.75293</ele><time>2009-05-31T11:05:57Z</time></trkpt>
<trkpt lat="46.32453768" lon="7.53832388"><ele>1093.15625</ele><time>2009-05-31T11:06:02Z</time></trkpt>
<trkpt lat="46.32449149" lon="7.53850912"><ele>1093.15625</ele><time>2009-05-31T11:06:08Z</time></trkpt>
<trkpt lat="46.32452083" lon="7.53858933"><ele>1092.675781</ele><time>2009-05-31T11:06:11Z</time></trkpt>
<trkpt lat="46.32450557" lon="7.53872495"><ele>1095.55957</ele><time>2009-05-31T11:06:16Z</time></trkpt>
<trkpt lat="46.32450943" lon="7.53883610"><ele>1095.078857</ele><time>2009-05-31T11:06:24Z</time></trkpt>
<trkpt lat="46.32452846" lon="7.53891774"><ele>1096.520996</ele><time>2009-05-31T11:06:27Z</time></trkpt>
<trkpt lat="46.32454262" lon="7.53895747"><ele>1097.962891</ele><time>2009-05-31T11:06:29Z</time></trkpt>
<trkpt lat="46.32458227" lon="7.53901798"><ele>1101.327637</ele><time>2009-05-31T11:06:33Z</time></trkpt>
<trkpt lat="46.32457623" lon="7.53909258"><ele>1102.288818</ele><time>2009-05-31T11:06:36Z</time></trkpt>
<trkpt lat="46.32461688" lon="7.53919467"><ele>1103.250244</ele><time>2009-05-31T11:06:41Z</time></trkpt>
<trkpt lat="46.32462719" lon="7.53929350"><ele>1104.692139</ele><time>2009-05-31T11:06:45Z</time></trkpt>
<trkpt lat="46.32466625" lon="7.53956256"><ele>1107.095459</ele><time>2009-05-31T11:06:55Z</time></trkpt>
<trkpt lat="46.32476952" lon="7.53989984"><ele>1110.459961</ele><time>2009-05-31T11:07:08Z</time></trkpt>
<trkpt lat="46.32479416" lon="7.53999347"><ele>1110.940674</ele><time>2009-05-31T11:07:12Z</time></trkpt>
<trkpt lat="46.32487924" lon="7.54026487"><ele>1111.421387</ele><time>2009-05-31T11:07:23Z</time></trkpt>
<trkpt lat="46.32493230" lon="7.54053569"><ele>1110.940674</ele><time>2009-05-31T11:07:32Z</time></trkpt>
<trkpt lat="46.32494059" lon="7.54055589"><ele>1110.459961</ele><time>2009-05-31T11:07:33Z</time></trkpt>
<trkpt lat="46.32498049" lon="7.54059437"><ele>1109.979248</ele><time>2009-05-31T11:07:37Z</time></trkpt>
<trkpt lat="46.32506372" lon="7.54076620"><ele>1110.459961</ele><time>2009-05-31T11:07:44Z</time></trkpt>
<trkpt lat="46.32507915" lon="7.54095638"><ele>1109.979248</ele><time>2009-05-31T11:07:50Z</time></trkpt>
<trkpt lat="46.32515232" lon="7.54118663"><ele>1111.9021</ele><time>2009-05-31T11:07:59Z</time></trkpt>
<trkpt lat="46.32528727" lon="7.54145293"><ele>1113.824463</ele><time>2009-05-31T11:08:11Z</time></trkpt>
<trkpt lat="46.32533848" lon="7.54155267"><ele>1112.863281</ele><time>2009-05-31T11:08:15Z</time></trkpt>
<trkpt lat="46.32531879" lon="7.54166683"><ele>1116.228027</ele><time>2009-05-31T11:08:20Z</time></trkpt>
<trkpt lat="46.32532256" lon="7.54181008"><ele>1115.747314</ele><time>2009-05-31T11:08:25Z</time></trkpt>
<trkpt lat="46.32546924" lon="7.54194117"><ele>1115.747314</ele><time>2009-05-31T11:08:33Z</time></trkpt>
<trkpt lat="46.32545742" lon="7.54201032"><ele>1115.747314</ele><time>2009-05-31T11:08:37Z</time></trkpt>
<trkpt lat="46.32550042" lon="7.54239103"><ele>1117.189453</ele><time>2009-05-31T11:08:49Z</time></trkpt>
<trkpt lat="46.32555859" lon="7.54245414"><ele>1118.631348</ele><time>2009-05-31T11:08:53Z</time></trkpt>
<trkpt lat="46.32560017" lon="7.54253629"><ele>1119.592773</ele><time>2009-05-31T11:09:05Z</time></trkpt>
<trkpt lat="46.32564249" lon="7.54257124"><ele>1121.99585</ele><time>2009-05-31T11:09:22Z</time></trkpt>
<trkpt lat="46.32561819" lon="7.54252438"><ele>1121.034668</ele><time>2009-05-31T11:10:32Z</time></trkpt>
<trkpt lat="46.32562003" lon="7.54252464"><ele>1122.476563</ele><time>2009-05-31T11:11:10Z</time></trkpt>
<trkpt lat="46.32564845" lon="7.54262296"><ele>1124.39917</ele><time>2009-05-31T11:11:15Z</time></trkpt>
<trkpt lat="46.32562766" lon="7.54278540"><ele>1124.39917</ele><time>2009-05-31T11:11:21Z</time></trkpt>
<trkpt lat="46.32558139" lon="7.54289688"><ele>1122.476563</ele><time>2009-05-31T11:11:26Z</time></trkpt>
<trkpt lat="46.32565943" lon="7.54320826"><ele>1122.476563</ele><time>2009-05-31T11:11:36Z</time></trkpt>
<trkpt lat="46.32575029" lon="7.54347280"><ele>1121.99585</ele><time>2009-05-31T11:11:44Z</time></trkpt>
<trkpt lat="46.32584626" lon="7.54365192"><ele>1122.957275</ele><time>2009-05-31T11:11:51Z</time></trkpt>
<trkpt lat="46.32585246" lon="7.54368955"><ele>1124.39917</ele><time>2009-05-31T11:11:53Z</time></trkpt>
<trkpt lat="46.32582153" lon="7.54372350"><ele>1124.879883</ele><time>2009-05-31T11:11:57Z</time></trkpt>
<trkpt lat="46.32578759" lon="7.54382123"><ele>1122.476563</ele><time>2009-05-31T11:12:02Z</time></trkpt>
<trkpt lat="46.32582933" lon="7.54400597"><ele>1123.437988</ele><time>2009-05-31T11:12:09Z</time></trkpt>
<trkpt lat="46.32582245" lon="7.54407772"><ele>1123.918457</ele><time>2009-05-31T11:12:11Z</time></trkpt>
<trkpt lat="46.32586436" lon="7.54427738"><ele>1125.360352</ele><time>2009-05-31T11:12:19Z</time></trkpt>
<trkpt lat="46.32592002" lon="7.54444770"><ele>1127.283203</ele><time>2009-05-31T11:12:26Z</time></trkpt>
<trkpt lat="46.32595355" lon="7.54453084"><ele>1128.244385</ele><time>2009-05-31T11:12:30Z</time></trkpt>
<trkpt lat="46.32603016" lon="7.54487107"><ele>1129.686279</ele><time>2009-05-31T11:12:42Z</time></trkpt>
<trkpt lat="46.32608254" lon="7.54497576"><ele>1130.647705</ele><time>2009-05-31T11:12:46Z</time></trkpt>
<trkpt lat="46.32630534" lon="7.54520626"><ele>1133.051025</ele><time>2009-05-31T11:13:00Z</time></trkpt>
<trkpt lat="46.32633174" lon="7.54522034"><ele>1133.531738</ele><time>2009-05-31T11:13:02Z</time></trkpt>
<trkpt lat="46.32655302" lon="7.54536878"><ele>1136.89624</ele><time>2009-05-31T11:13:16Z</time></trkpt>
<trkpt lat="46.32669786" lon="7.54549359"><ele>1140.260986</ele><time>2009-05-31T11:13:26Z</time></trkpt>
<trkpt lat="46.32691872" lon="7.54561387"><ele>1141.702881</ele><time>2009-05-31T11:13:38Z</time></trkpt>
<trkpt lat="46.32703607" lon="7.54569434"><ele>1140.260986</ele><time>2009-05-31T11:13:45Z</time></trkpt>
<trkpt lat="46.32713598" lon="7.54585292"><ele>1137.376953</ele><time>2009-05-31T11:13:53Z</time></trkpt>
<trkpt lat="46.32729524" lon="7.54606314"><ele>1135.454346</ele><time>2009-05-31T11:14:03Z</time></trkpt>
<trkpt lat="46.32737403" lon="7.54612852"><ele>1134.493164</ele><time>2009-05-31T11:14:07Z</time></trkpt>
<trkpt lat="46.32764895" lon="7.54629616"><ele>1131.608887</ele><time>2009-05-31T11:14:19Z</time></trkpt>
<trkpt lat="46.32773680" lon="7.54635265"><ele>1130.166992</ele><time>2009-05-31T11:14:23Z</time></trkpt>
<trkpt lat="46.32789480" lon="7.54653429"><ele>1130.647705</ele><time>2009-05-31T11:14:32Z</time></trkpt>
<trkpt lat="46.32802212" lon="7.54662246"><ele>1131.128418</ele><time>2009-05-31T11:14:38Z</time></trkpt>
<trkpt lat="46.32813234" lon="7.54670335"><ele>1130.647705</ele><time>2009-05-31T11:14:43Z</time></trkpt>
<trkpt lat="46.32826402" lon="7.54683226"><ele>1127.283203</ele><time>2009-05-31T11:14:51Z</time></trkpt>
<trkpt lat="46.32850852" lon="7.54706704"><ele>1126.321777</ele><time>2009-05-31T11:15:03Z</time></trkpt>
<trkpt lat="46.32863676" lon="7.54709864"><ele>1124.879883</ele><time>2009-05-31T11:15:09Z</time></trkpt>
<trkpt lat="46.32886877" lon="7.54720576"><ele>1124.879883</ele><time>2009-05-31T11:15:21Z</time></trkpt>
<trkpt lat="46.32888193" lon="7.54722026"><ele>1124.879883</ele><time>2009-05-31T11:15:22Z</time></trkpt>
<trkpt lat="46.32905477" lon="7.54746669"><ele>1124.39917</ele><time>2009-05-31T11:15:32Z</time></trkpt>
<trkpt lat="46.32914647" lon="7.54755235"><ele>1123.918457</ele><time>2009-05-31T11:15:44Z</time></trkpt>
<trkpt lat="46.32915409" lon="7.54750449"><ele>1125.360352</ele><time>2009-05-31T11:16:35Z</time></trkpt>
<trkpt lat="46.32919366" lon="7.54755369"><ele>1125.360352</ele><time>2009-05-31T11:16:46Z</time></trkpt>
<trkpt lat="46.32922752" lon="7.54760725"><ele>1125.360352</ele><time>2009-05-31T11:16:50Z</time></trkpt>
<trkpt lat="46.32938895" lon="7.54784807"><ele>1126.80249</ele><time>2009-05-31T11:17:02Z</time></trkpt>
<trkpt lat="46.32936783" lon="7.54818485"><ele>1127.283203</ele><time>2009-05-31T11:17:13Z</time></trkpt>
<trkpt lat="46.32932534" lon="7.54828753"><ele>1127.763672</ele><time>2009-05-31T11:17:17Z</time></trkpt>
<trkpt lat="46.32921176" lon="7.54865927"><ele>1127.283203</ele><time>2009-05-31T11:17:30Z</time></trkpt>
<trkpt lat="46.32917647" lon="7.54902564"><ele>1128.244385</ele><time>2009-05-31T11:17:41Z</time></trkpt>
<trkpt lat="46.32917798" lon="7.54912354"><ele>1128.725098</ele><time>2009-05-31T11:17:44Z</time></trkpt>
<trkpt lat="46.32925468" lon="7.54922169"><ele>1127.763672</ele><time>2009-05-31T11:17:49Z</time></trkpt>
<trkpt lat="46.32943489" lon="7.54935388"><ele>1126.80249</ele><time>2009-05-31T11:17:58Z</time></trkpt>
<trkpt lat="46.32951753" lon="7.54943895"><ele>1127.283203</ele><time>2009-05-31T11:18:03Z</time></trkpt>
<trkpt lat="46.32966287" lon="7.54952059"><ele>1127.283203</ele><time>2009-05-31T11:18:10Z</time></trkpt>
<trkpt lat="46.32973052" lon="7.54954599"><ele>1126.321777</ele><time>2009-05-31T11:18:14Z</time></trkpt>
<trkpt lat="46.32988734" lon="7.54958438"><ele>1126.321777</ele><time>2009-05-31T11:18:21Z</time></trkpt>
<trkpt lat="46.32997720" lon="7.54957968"><ele>1125.841064</ele><time>2009-05-31T11:18:25Z</time></trkpt>
<trkpt lat="46.33003855" lon="7.54955454"><ele>1126.80249</ele><time>2009-05-31T11:18:27Z</time></trkpt>
<trkpt lat="46.33023888" lon="7.54967683"><ele>1125.360352</ele><time>2009-05-31T11:18:39Z</time></trkpt>
<trkpt lat="46.33030937" lon="7.54974808"><ele>1124.879883</ele><time>2009-05-31T11:18:43Z</time></trkpt>
<trkpt lat="46.33047374" lon="7.54990616"><ele>1123.918457</ele><time>2009-05-31T11:18:53Z</time></trkpt>
<trkpt lat="46.33042077" lon="7.54999358"><ele>1125.360352</ele><time>2009-05-31T11:19:00Z</time></trkpt>
<trkpt lat="46.33036016" lon="7.55005335"><ele>1126.80249</ele><time>2009-05-31T11:19:04Z</time></trkpt>
<trkpt lat="46.33027459" lon="7.55012845"><ele>1127.283203</ele><time>2009-05-31T11:19:09Z</time></trkpt>
<trkpt lat="46.33021734" lon="7.55025024"><ele>1128.725098</ele><time>2009-05-31T11:19:16Z</time></trkpt>
<trkpt lat="46.33019806" lon="7.55036213"><ele>1128.725098</ele><time>2009-05-31T11:19:20Z</time></trkpt>
<trkpt lat="46.33016277" lon="7.55062080"><ele>1130.647705</ele><time>2009-05-31T11:19:29Z</time></trkpt>
<trkpt lat="46.33001575" lon="7.55084963"><ele>1131.608887</ele><time>2009-05-31T11:19:39Z</time></trkpt>
<trkpt lat="46.32996404" lon="7.55090444"><ele>1132.089844</ele><time>2009-05-31T11:19:42Z</time></trkpt>
<trkpt lat="46.32982657" lon="7.55112648"><ele>1134.973877</ele><time>2009-05-31T11:19:55Z</time></trkpt>
<trkpt lat="46.32977477" lon="7.55120502"><ele>1135.454346</ele><time>2009-05-31T11:20:00Z</time></trkpt>
<trkpt lat="46.32957906" lon="7.55126872"><ele>1139.299561</ele><time>2009-05-31T11:20:13Z</time></trkpt>
<trkpt lat="46.32939826" lon="7.55120887"><ele>1141.222168</ele><time>2009-05-31T11:20:25Z</time></trkpt>
<trkpt lat="46.32922836" lon="7.55113889"><ele>1144.58667</ele><time>2009-05-31T11:20:37Z</time></trkpt>
<trkpt lat="46.32910263" lon="7.55105674"><ele>1143.144775</ele><time>2009-05-31T11:20:45Z</time></trkpt>
<trkpt lat="46.32901755" lon="7.55098240"><ele>1142.183594</ele><time>2009-05-31T11:20:52Z</time></trkpt>
<trkpt lat="46.32898453" lon="7.55095867"><ele>1141.222168</ele><time>2009-05-31T11:20:55Z</time></trkpt>
<trkpt lat="46.32889015" lon="7.55089732"><ele>1139.299561</ele><time>2009-05-31T11:21:02Z</time></trkpt>
<trkpt lat="46.32877875" lon="7.55079833"><ele>1136.89624</ele><time>2009-05-31T11:21:13Z</time></trkpt>
<trkpt lat="46.32864003" lon="7.55071560"><ele>1135.454346</ele><time>2009-05-31T11:21:23Z</time></trkpt>
<trkpt lat="46.32848857" lon="7.55060923"><ele>1133.531738</ele><time>2009-05-31T11:21:35Z</time></trkpt>
<trkpt lat="46.32843702" lon="7.55059306"><ele>1131.608887</ele><time>2009-05-31T11:21:39Z</time></trkpt>
<trkpt lat="46.32840626" lon="7.55058417"><ele>1131.608887</ele><time>2009-05-31T11:21:41Z</time></trkpt>
<trkpt lat="46.32837868" lon="7.55056866"><ele>1130.647705</ele><time>2009-05-31T11:21:43Z</time></trkpt>
<trkpt lat="46.32828648" lon="7.55060915"><ele>1129.205566</ele><time>2009-05-31T11:21:48Z</time></trkpt>
<trkpt lat="46.32815639" lon="7.55064033"><ele>1127.763672</ele><time>2009-05-31T11:21:55Z</time></trkpt>
<trkpt lat="46.32812119" lon="7.55064880"><ele>1126.321777</ele><time>2009-05-31T11:21:57Z</time></trkpt>
<trkpt lat="46.32806017" lon="7.55070806"><ele>1123.918457</ele><time>2009-05-31T11:22:02Z</time></trkpt>
<trkpt lat="46.32795322" lon="7.55081266"><ele>1122.957275</ele><time>2009-05-31T11:22:08Z</time></trkpt>
<trkpt lat="46.32782782" lon="7.55099757"><ele>1119.112061</ele><time>2009-05-31T11:22:17Z</time></trkpt>
<trkpt lat="46.32762674" lon="7.55125975"><ele>1117.189453</ele><time>2009-05-31T11:22:30Z</time></trkpt>
<trkpt lat="46.32761543" lon="7.55128456"><ele>1116.70874</ele><time>2009-05-31T11:22:31Z</time></trkpt>
<trkpt lat="46.32748249" lon="7.55157332"><ele>1115.266602</ele><time>2009-05-31T11:22:41Z</time></trkpt>
<trkpt lat="46.32735173" lon="7.55176258"><ele>1111.9021</ele><time>2009-05-31T11:22:51Z</time></trkpt>
<trkpt lat="46.32734503" lon="7.55177792"><ele>1111.9021</ele><time>2009-05-31T11:22:52Z</time></trkpt>
<trkpt lat="46.32720572" lon="7.55210842"><ele>1109.498779</ele><time>2009-05-31T11:23:04Z</time></trkpt>
<trkpt lat="46.32718652" lon="7.55222275"><ele>1109.498779</ele><time>2009-05-31T11:23:08Z</time></trkpt>
<trkpt lat="46.32711888" lon="7.55220288"><ele>1107.576172</ele><time>2009-05-31T11:23:19Z</time></trkpt>
<trkpt lat="46.32710095" lon="7.55214673"><ele>1105.172852</ele><time>2009-05-31T11:23:23Z</time></trkpt>
<trkpt lat="46.32708913" lon="7.55212183"><ele>1104.21167</ele><time>2009-05-31T11:23:25Z</time></trkpt>
<trkpt lat="46.32706985" lon="7.55210649"><ele>1102.288818</ele><time>2009-05-31T11:23:27Z</time></trkpt>
<trkpt lat="46.32696097" lon="7.55207615"><ele>1097.962891</ele><time>2009-05-31T11:23:36Z</time></trkpt>
<trkpt lat="46.32695049" lon="7.55207020"><ele>1097.482178</ele><time>2009-05-31T11:23:37Z</time></trkpt>
<trkpt lat="46.32692208" lon="7.55204279"><ele>1096.520996</ele><time>2009-05-31T11:23:39Z</time></trkpt>
<trkpt lat="46.32683147" lon="7.55201287"><ele>1093.15625</ele><time>2009-05-31T11:23:47Z</time></trkpt>
<trkpt lat="46.32678470" lon="7.55196542"><ele>1090.272461</ele><time>2009-05-31T11:23:52Z</time></trkpt>
<trkpt lat="46.32673717" lon="7.55193500"><ele>1088.349854</ele><time>2009-05-31T11:23:57Z</time></trkpt>
<trkpt lat="46.32670012" lon="7.55190306"><ele>1085.946533</ele><time>2009-05-31T11:24:00Z</time></trkpt>
<trkpt lat="46.32661002" lon="7.55183014"><ele>1082.581787</ele><time>2009-05-31T11:24:09Z</time></trkpt>
<trkpt lat="46.32655403" lon="7.55180550"><ele>1079.217041</ele><time>2009-05-31T11:24:13Z</time></trkpt>
<trkpt lat="46.32654238" lon="7.55180290"><ele>1079.217041</ele><time>2009-05-31T11:24:14Z</time></trkpt>
<trkpt lat="46.32651480" lon="7.55181044"><ele>1078.736572</ele><time>2009-05-31T11:24:16Z</time></trkpt>
<trkpt lat="46.32649519" lon="7.55182503"><ele>1077.775146</ele><time>2009-05-31T11:24:18Z</time></trkpt>
<trkpt lat="46.32644808" lon="7.55186384"><ele>1074.891357</ele><time>2009-05-31T11:24:23Z</time></trkpt>
<trkpt lat="46.32641849" lon="7.55186954"><ele>1073.929932</ele><time>2009-05-31T11:24:25Z</time></trkpt>
<trkpt lat="46.32637030" lon="7.55185420"><ele>1070.56543</ele><time>2009-05-31T11:24:29Z</time></trkpt>
<trkpt lat="46.32628103" lon="7.55184665"><ele>1068.162109</ele><time>2009-05-31T11:24:34Z</time></trkpt>
<trkpt lat="46.32614365" lon="7.55177977"><ele>1066.719971</ele><time>2009-05-31T11:24:43Z</time></trkpt>
<trkpt lat="46.32612429" lon="7.55174783"><ele>1065.758789</ele><time>2009-05-31T11:24:45Z</time></trkpt>
<trkpt lat="46.32606964" lon="7.55164649"><ele>1062.394043</ele><time>2009-05-31T11:24:52Z</time></trkpt>
<trkpt lat="46.32605933" lon="7.55163132"><ele>1062.394043</ele><time>2009-05-31T11:24:53Z</time></trkpt>
<trkpt lat="46.32605304" lon="7.55161498"><ele>1061.432861</ele><time>2009-05-31T11:24:54Z</time></trkpt>
<trkpt lat="46.32603058" lon="7.55153225"><ele>1059.510254</ele><time>2009-05-31T11:24:59Z</time></trkpt>
<trkpt lat="46.32598339" lon="7.55140912"><ele>1057.587646</ele><time>2009-05-31T11:25:06Z</time></trkpt>
<trkpt lat="46.32596394" lon="7.55134055"><ele>1055.184326</ele><time>2009-05-31T11:25:10Z</time></trkpt>
<trkpt lat="46.32591046" lon="7.55126277"><ele>1052.300293</ele><time>2009-05-31T11:25:17Z</time></trkpt>
<trkpt lat="46.32587920" lon="7.55124693"><ele>1050.858154</ele><time>2009-05-31T11:25:20Z</time></trkpt>
<trkpt lat="46.32585506" lon="7.55119739"><ele>1049.896973</ele><time>2009-05-31T11:25:23Z</time></trkpt>
<trkpt lat="46.32574643" lon="7.55109664"><ele>1047.974365</ele><time>2009-05-31T11:25:36Z</time></trkpt>
<trkpt lat="46.32563923" lon="7.55106999"><ele>1044.609619</ele><time>2009-05-31T11:26:10Z</time></trkpt>
<trkpt lat="46.32559899" lon="7.55105892"><ele>1043.167725</ele><time>2009-05-31T11:26:15Z</time></trkpt>
<trkpt lat="46.32551719" lon="7.55106554"><ele>1040.283936</ele><time>2009-05-31T11:26:24Z</time></trkpt>
<trkpt lat="46.32545139" lon="7.55108558"><ele>1038.361328</ele><time>2009-05-31T11:26:31Z</time></trkpt>
<trkpt lat="46.32533454" lon="7.55109278"><ele>1035.957764</ele><time>2009-05-31T11:26:42Z</time></trkpt>
<trkpt lat="46.32520856" lon="7.55109245"><ele>1033.554443</ele><time>2009-05-31T11:26:53Z</time></trkpt>
<trkpt lat="46.32517537" lon="7.55108449"><ele>1032.112549</ele><time>2009-05-31T11:26:56Z</time></trkpt>
<trkpt lat="46.32515936" lon="7.55108055"><ele>1031.151367</ele><time>2009-05-31T11:26:57Z</time></trkpt>
<trkpt lat="46.32499122" lon="7.55102816"><ele>1028.267334</ele><time>2009-05-31T11:27:11Z</time></trkpt>
<trkpt lat="46.32492609" lon="7.55100042"><ele>1024.902832</ele><time>2009-05-31T11:27:18Z</time></trkpt>
<trkpt lat="46.32492014" lon="7.55099296"><ele>1024.902832</ele><time>2009-05-31T11:27:19Z</time></trkpt>
<trkpt lat="46.32486365" lon="7.55095566"><ele>1022.018799</ele><time>2009-05-31T11:27:27Z</time></trkpt>
<trkpt lat="46.32477966" lon="7.55090729"><ele>1019.615479</ele><time>2009-05-31T11:27:38Z</time></trkpt>
<trkpt lat="46.32470523" lon="7.55091526"><ele>1018.17334</ele><time>2009-05-31T11:27:54Z</time></trkpt>
<trkpt lat="46.32472459" lon="7.55085868"><ele>1018.654053</ele><time>2009-05-31T11:28:13Z</time></trkpt>
<trkpt lat="46.32473675" lon="7.55083747"><ele>1018.654053</ele><time>2009-05-31T11:28:15Z</time></trkpt>
<trkpt lat="46.32475929" lon="7.55079799"><ele>1018.654053</ele><time>2009-05-31T11:28:18Z</time></trkpt>
<trkpt lat="46.32476860" lon="7.55085885"><ele>1018.17334</ele><time>2009-05-31T11:28:40Z</time></trkpt>
<trkpt lat="46.32477740" lon="7.55078576"><ele>1018.17334</ele><time>2009-05-31T11:29:12Z</time></trkpt>
<trkpt lat="46.32491662" lon="7.55063228"><ele>1017.692627</ele><time>2009-05-31T11:29:25Z</time></trkpt>
<trkpt lat="46.32500547" lon="7.55054846"><ele>1017.692627</ele><time>2009-05-31T11:29:31Z</time></trkpt>
<trkpt lat="46.32511745" lon="7.55045509"><ele>1016.731445</ele><time>2009-05-31T11:29:37Z</time></trkpt>
<trkpt lat="46.32522005" lon="7.55036222"><ele>1016.731445</ele><time>2009-05-31T11:29:42Z</time></trkpt>
<trkpt lat="46.32535416" lon="7.55032735"><ele>1016.731445</ele><time>2009-05-31T11:29:48Z</time></trkpt>
<trkpt lat="46.32552808" lon="7.55024177"><ele>1015.770264</ele><time>2009-05-31T11:29:56Z</time></trkpt>
<trkpt lat="46.32557418" lon="7.55017136"><ele>1016.731445</ele><time>2009-05-31T11:30:00Z</time></trkpt>
<trkpt lat="46.32547159" lon="7.54997372"><ele>1017.212158</ele><time>2009-05-31T11:30:07Z</time></trkpt>
<trkpt lat="46.32529456" lon="7.54975419"><ele>1015.289551</ele><time>2009-05-31T11:30:18Z</time></trkpt>
<trkpt lat="46.32520923" lon="7.54968622"><ele>1014.808838</ele><time>2009-05-31T11:30:24Z</time></trkpt>
<trkpt lat="46.32508937" lon="7.54966845"><ele>1014.328125</ele><time>2009-05-31T11:30:30Z</time></trkpt>
<trkpt lat="46.32478385" lon="7.54978747"><ele>1012.88623</ele><time>2009-05-31T11:30:42Z</time></trkpt>
<trkpt lat="46.32449375" lon="7.54988747"><ele>1012.88623</ele><time>2009-05-31T11:30:55Z</time></trkpt>
<trkpt lat="46.32422185" lon="7.55007438"><ele>1011.444336</ele><time>2009-05-31T11:31:08Z</time></trkpt>
<trkpt lat="46.32413434" lon="7.55011462"><ele>1011.444336</ele><time>2009-05-31T11:31:12Z</time></trkpt>
<trkpt lat="46.32408304" lon="7.55009048"><ele>1010.963623</ele><time>2009-05-31T11:31:14Z</time></trkpt>
<trkpt lat="46.32388766" lon="7.54980943"><ele>1010.48291</ele><time>2009-05-31T11:31:25Z</time></trkpt>
<trkpt lat="46.32384500" lon="7.54941280"><ele>1010.48291</ele><time>2009-05-31T11:31:36Z</time></trkpt>
<trkpt lat="46.32367015" lon="7.54918942"><ele>1009.041016</ele><time>2009-05-31T11:31:47Z</time></trkpt>
<trkpt lat="46.32350586" lon="7.54887938"><ele>1008.560303</ele><time>2009-05-31T11:31:58Z</time></trkpt>
<trkpt lat="46.32346488" lon="7.54875943"><ele>1009.041016</ele><time>2009-05-31T11:32:02Z</time></trkpt>
<trkpt lat="46.32348357" lon="7.54845676"><ele>1007.599121</ele><time>2009-05-31T11:32:12Z</time></trkpt>
<trkpt lat="46.32351877" lon="7.54829365"><ele>1007.599121</ele><time>2009-05-31T11:32:17Z</time></trkpt>
<trkpt lat="46.32361676" lon="7.54810564"><ele>1006.637695</ele><time>2009-05-31T11:32:25Z</time></trkpt>
<trkpt lat="46.32364836" lon="7.54799408"><ele>1006.637695</ele><time>2009-05-31T11:32:29Z</time></trkpt>
<trkpt lat="46.32366998" lon="7.54787958"><ele>1006.156982</ele><time>2009-05-31T11:32:33Z</time></trkpt>
<trkpt lat="46.32361164" lon="7.54773969"><ele>1005.195801</ele><time>2009-05-31T11:32:38Z</time></trkpt>
<trkpt lat="46.32356764" lon="7.54770507"><ele>1005.195801</ele><time>2009-05-31T11:32:41Z</time></trkpt>
<trkpt lat="46.32334879" lon="7.54764036"><ele>1003.753662</ele><time>2009-05-31T11:32:52Z</time></trkpt>
<trkpt lat="46.32331727" lon="7.54765729"><ele>1003.753662</ele><time>2009-05-31T11:32:54Z</time></trkpt>
<trkpt lat="46.32307143" lon="7.54769325"><ele>1002.792236</ele><time>2009-05-31T11:33:05Z</time></trkpt>
<trkpt lat="46.32305047" lon="7.54770465"><ele>1002.792236</ele><time>2009-05-31T11:33:06Z</time></trkpt>
<trkpt lat="46.32293589" lon="7.54778512"><ele>1002.792236</ele><time>2009-05-31T11:33:13Z</time></trkpt>
<trkpt lat="46.32288720" lon="7.54781647"><ele>1002.311523</ele><time>2009-05-31T11:33:15Z</time></trkpt>
<trkpt lat="46.32252409" lon="7.54806248"><ele>1000.869629</ele><time>2009-05-31T11:33:30Z</time></trkpt>
<trkpt lat="46.32225637" lon="7.54796349"><ele>999.908447</ele><time>2009-05-31T11:33:42Z</time></trkpt>
<trkpt lat="46.32209779" lon="7.54791395"><ele>999.427734</ele><time>2009-05-31T11:33:48Z</time></trkpt>
<trkpt lat="46.32179059" lon="7.54783482"><ele>998.947021</ele><time>2009-05-31T11:34:02Z</time></trkpt>
<trkpt lat="46.32170719" lon="7.54776676"><ele>997.505127</ele><time>2009-05-31T11:34:06Z</time></trkpt>
<trkpt lat="46.32159253" lon="7.54767775"><ele>997.505127</ele><time>2009-05-31T11:34:12Z</time></trkpt>
<trkpt lat="46.32150628" lon="7.54752905"><ele>996.063232</ele><time>2009-05-31T11:34:18Z</time></trkpt>
<trkpt lat="46.32147082" lon="7.54723652"><ele>993.659912</ele><time>2009-05-31T11:34:28Z</time></trkpt>
<trkpt lat="46.32139689" lon="7.54681726"><ele>992.218018</ele><time>2009-05-31T11:34:40Z</time></trkpt>
<trkpt lat="46.32126722" lon="7.54647318"><ele>991.256592</ele><time>2009-05-31T11:34:52Z</time></trkpt>
<trkpt lat="46.32107243" lon="7.54618770"><ele>990.775879</ele><time>2009-05-31T11:35:04Z</time></trkpt>
<trkpt lat="46.32090152" lon="7.54599189"><ele>989.814697</ele><time>2009-05-31T11:35:15Z</time></trkpt>
<trkpt lat="46.32085274" lon="7.54595635"><ele>989.814697</ele><time>2009-05-31T11:35:17Z</time></trkpt>
<trkpt lat="46.32061813" lon="7.54583113"><ele>988.853516</ele><time>2009-05-31T11:35:28Z</time></trkpt>
<trkpt lat="46.32048352" lon="7.54571479"><ele>988.372803</ele><time>2009-05-31T11:35:34Z</time></trkpt>
<trkpt lat="46.32044245" lon="7.54536820"><ele>988.372803</ele><time>2009-05-31T11:35:46Z</time></trkpt>
<trkpt lat="46.32049123" lon="7.54500568"><ele>987.411133</ele><time>2009-05-31T11:35:58Z</time></trkpt>
<trkpt lat="46.32051713" lon="7.54487098"><ele>987.411133</ele><time>2009-05-31T11:36:09Z</time></trkpt>
<trkpt lat="46.32054135" lon="7.54488012"><ele>986.93042</ele><time>2009-05-31T11:36:18Z</time></trkpt>
<trkpt lat="46.32048109" lon="7.54489889"><ele>986.449951</ele><time>2009-05-31T11:36:31Z</time></trkpt>
<trkpt lat="46.32045753" lon="7.54489529"><ele>986.93042</ele><time>2009-05-31T11:36:43Z</time></trkpt>
<trkpt lat="46.32048628" lon="7.54484022"><ele>986.93042</ele><time>2009-05-31T11:37:38Z</time></trkpt>
<trkpt lat="46.32046809" lon="7.54477199"><ele>985.969238</ele><time>2009-05-31T11:37:42Z</time></trkpt>
<trkpt lat="46.32026307" lon="7.54441308"><ele>983.085205</ele><time>2009-05-31T11:37:57Z</time></trkpt>
<trkpt lat="46.32025167" lon="7.54418283"><ele>981.162842</ele><time>2009-05-31T11:38:04Z</time></trkpt>
<trkpt lat="46.32029199" lon="7.54407068"><ele>979.720703</ele><time>2009-05-31T11:38:08Z</time></trkpt>
<trkpt lat="46.32042199" lon="7.54395777"><ele>978.278809</ele><time>2009-05-31T11:38:15Z</time></trkpt>
<trkpt lat="46.32065048" lon="7.54382249"><ele>974.433594</ele><time>2009-05-31T11:38:27Z</time></trkpt>
<trkpt lat="46.32076649" lon="7.54373180"><ele>973.952881</ele><time>2009-05-31T11:38:34Z</time></trkpt>
<trkpt lat="46.32084184" lon="7.54363130"><ele>973.472412</ele><time>2009-05-31T11:38:39Z</time></trkpt>
<trkpt lat="46.32088325" lon="7.54343919"><ele>971.068848</ele><time>2009-05-31T11:38:45Z</time></trkpt>
<trkpt lat="46.32082382" lon="7.54324263"><ele>968.184814</ele><time>2009-05-31T11:38:58Z</time></trkpt>
<trkpt lat="46.32081527" lon="7.54323198"><ele>968.665527</ele><time>2009-05-31T11:39:01Z</time></trkpt>
<trkpt lat="46.32077009" lon="7.54315604"><ele>968.665527</ele><time>2009-05-31T11:39:05Z</time></trkpt>
<trkpt lat="46.32066926" lon="7.54292655"><ele>967.704102</ele><time>2009-05-31T11:39:13Z</time></trkpt>
<trkpt lat="46.32061318" lon="7.54275380"><ele>965.781738</ele><time>2009-05-31T11:39:25Z</time></trkpt>
<trkpt lat="46.32060648" lon="7.54277333"><ele>965.301025</ele><time>2009-05-31T11:40:05Z</time></trkpt>
<trkpt lat="46.32060044" lon="7.54281574"><ele>964.3396</ele><time>2009-05-31T11:40:33Z</time></trkpt>
<trkpt lat="46.32061779" lon="7.54283485"><ele>964.820313</ele><time>2009-05-31T11:40:35Z</time></trkpt>
<trkpt lat="46.32071662" lon="7.54285899"><ele>967.704102</ele><time>2009-05-31T11:40:44Z</time></trkpt>
<trkpt lat="46.32085576" lon="7.54285195"><ele>968.665527</ele><time>2009-05-31T11:41:00Z</time></trkpt>
<trkpt lat="46.32091242" lon="7.54285748"><ele>972.030273</ele><time>2009-05-31T11:41:07Z</time></trkpt>
<trkpt lat="46.32095626" lon="7.54286955"><ele>972.510986</ele><time>2009-05-31T11:41:12Z</time></trkpt>
<trkpt lat="46.32107126" lon="7.54288916"><ele>975.394775</ele><time>2009-05-31T11:41:24Z</time></trkpt>
<trkpt lat="46.32117695" lon="7.54291892"><ele>978.759521</ele><time>2009-05-31T11:41:35Z</time></trkpt>
<trkpt lat="46.32129028" lon="7.54292772"><ele>981.643311</ele><time>2009-05-31T11:41:48Z</time></trkpt>
<trkpt lat="46.32134149" lon="7.54290476"><ele>982.604736</ele><time>2009-05-31T11:41:55Z</time></trkpt>
<trkpt lat="46.32143746" lon="7.54276738"><ele>985.969238</ele><time>2009-05-31T11:42:10Z</time></trkpt>
<trkpt lat="46.32146085" lon="7.54272245"><ele>986.449951</ele><time>2009-05-31T11:42:24Z</time></trkpt>
<trkpt lat="46.32155598" lon="7.54264307"><ele>988.853516</ele><time>2009-05-31T11:42:35Z</time></trkpt>
<trkpt lat="46.32161658" lon="7.54260016"><ele>989.814697</ele><time>2009-05-31T11:42:42Z</time></trkpt>
<trkpt lat="46.32173996" lon="7.54256965"><ele>993.659912</ele><time>2009-05-31T11:42:56Z</time></trkpt>
<trkpt lat="46.32180719" lon="7.54256940"><ele>996.063232</ele><time>2009-05-31T11:43:03Z</time></trkpt>
<trkpt lat="46.32189897" lon="7.54248918"><ele>997.024414</ele><time>2009-05-31T11:43:17Z</time></trkpt>
<trkpt lat="46.32192135" lon="7.54243813"><ele>997.505127</ele><time>2009-05-31T11:43:34Z</time></trkpt>
<trkpt lat="46.32192143" lon="7.54228575"><ele>997.505127</ele><time>2009-05-31T11:43:40Z</time></trkpt>
<trkpt lat="46.32191246" lon="7.54203505"><ele>997.505127</ele><time>2009-05-31T11:43:50Z</time></trkpt>
<trkpt lat="46.32196208" lon="7.54181469"><ele>996.063232</ele><time>2009-05-31T11:44:00Z</time></trkpt>
<trkpt lat="46.32196393" lon="7.54171645"><ele>995.58252</ele><time>2009-05-31T11:44:03Z</time></trkpt>
<trkpt lat="46.32188472" lon="7.54144379"><ele>995.101807</ele><time>2009-05-31T11:44:14Z</time></trkpt>
<trkpt lat="46.32182672" lon="7.54139149"><ele>995.101807</ele><time>2009-05-31T11:44:17Z</time></trkpt>
<trkpt lat="46.32174768" lon="7.54126157"><ele>994.140625</ele><time>2009-05-31T11:44:22Z</time></trkpt>
<trkpt lat="46.32179629" lon="7.54098513"><ele>993.179199</ele><time>2009-05-31T11:44:31Z</time></trkpt>
<trkpt lat="46.32181507" lon="7.54077927"><ele>992.69873</ele><time>2009-05-31T11:44:37Z</time></trkpt>
<trkpt lat="46.32173602" lon="7.54062882"><ele>991.737305</ele><time>2009-05-31T11:44:43Z</time></trkpt>
<trkpt lat="46.32173670" lon="7.54036998"><ele>990.29541</ele><time>2009-05-31T11:44:51Z</time></trkpt>
<trkpt lat="46.32176436" lon="7.53991258"><ele>990.29541</ele><time>2009-05-31T11:45:04Z</time></trkpt>
<trkpt lat="46.32185178" lon="7.53977227"><ele>988.853516</ele><time>2009-05-31T11:45:10Z</time></trkpt>
<trkpt lat="46.32201112" lon="7.53947748"><ele>988.853516</ele><time>2009-05-31T11:45:21Z</time></trkpt>
<trkpt lat="46.32211413" lon="7.53933214"><ele>987.891846</ele><time>2009-05-31T11:45:27Z</time></trkpt>
<trkpt lat="46.32215546" lon="7.53925812"><ele>987.891846</ele><time>2009-05-31T11:45:30Z</time></trkpt>
<trkpt lat="46.32225897" lon="7.53896283"><ele>987.411133</ele><time>2009-05-31T11:45:40Z</time></trkpt>
<trkpt lat="46.32226802" lon="7.53893576"><ele>987.891846</ele><time>2009-05-31T11:45:41Z</time></trkpt>
<trkpt lat="46.32235687" lon="7.53876879"><ele>987.891846</ele><time>2009-05-31T11:45:47Z</time></trkpt>
<trkpt lat="46.32245234" lon="7.53847375"><ele>987.891846</ele><time>2009-05-31T11:45:55Z</time></trkpt>
<trkpt lat="46.32254756" lon="7.53816144"><ele>987.891846</ele><time>2009-05-31T11:46:05Z</time></trkpt>
<trkpt lat="46.32257489" lon="7.53804694"><ele>987.891846</ele><time>2009-05-31T11:46:09Z</time></trkpt>
<trkpt lat="46.32263373" lon="7.53786388"><ele>986.93042</ele><time>2009-05-31T11:46:23Z</time></trkpt>
<trkpt lat="46.32262685" lon="7.53785969"><ele>987.891846</ele><time>2009-05-31T11:46:26Z</time></trkpt>
<trkpt lat="46.32263297" lon="7.53769984"><ele>986.449951</ele><time>2009-05-31T11:46:33Z</time></trkpt>
<trkpt lat="46.32265854" lon="7.53753447"><ele>986.93042</ele><time>2009-05-31T11:46:39Z</time></trkpt>
<trkpt lat="46.32269986" lon="7.53715913"><ele>986.449951</ele><time>2009-05-31T11:46:51Z</time></trkpt>
<trkpt lat="46.32276365" lon="7.53687766"><ele>985.969238</ele><time>2009-05-31T11:47:02Z</time></trkpt>
<trkpt lat="46.32277513" lon="7.53670868"><ele>985.969238</ele><time>2009-05-31T11:47:07Z</time></trkpt>
<trkpt lat="46.32277052" lon="7.53646008"><ele>985.969238</ele><time>2009-05-31T11:47:14Z</time></trkpt>
<trkpt lat="46.32275753" lon="7.53630736"><ele>985.008057</ele><time>2009-05-31T11:47:21Z</time></trkpt>
<trkpt lat="46.32275677" lon="7.53609647"><ele>984.046631</ele><time>2009-05-31T11:47:28Z</time></trkpt>
<trkpt lat="46.32272693" lon="7.53590134"><ele>983.085205</ele><time>2009-05-31T11:47:33Z</time></trkpt>
<trkpt lat="46.32265124" lon="7.53573462"><ele>982.604736</ele><time>2009-05-31T11:47:38Z</time></trkpt>
<trkpt lat="46.32264144" lon="7.53567159"><ele>982.604736</ele><time>2009-05-31T11:47:40Z</time></trkpt>
<trkpt lat="46.32269952" lon="7.53533984"><ele>981.162842</ele><time>2009-05-31T11:47:51Z</time></trkpt>
<trkpt lat="46.32272232" lon="7.53529977"><ele>982.124023</ele><time>2009-05-31T11:47:52Z</time></trkpt>
<trkpt lat="46.32274554" lon="7.53507656"><ele>981.162842</ele><time>2009-05-31T11:47:57Z</time></trkpt>
<trkpt lat="46.32279893" lon="7.53488998"><ele>981.162842</ele><time>2009-05-31T11:48:02Z</time></trkpt>
<trkpt lat="46.32285694" lon="7.53462804"><ele>979.23999</ele><time>2009-05-31T11:48:11Z</time></trkpt>
<trkpt lat="46.32289843" lon="7.53450885"><ele>978.278809</ele><time>2009-05-31T11:48:16Z</time></trkpt>
<trkpt lat="46.32294956" lon="7.53432940"><ele>976.356201</ele><time>2009-05-31T11:48:24Z</time></trkpt>
<trkpt lat="46.32301049" lon="7.53411113"><ele>975.875488</ele><time>2009-05-31T11:48:37Z</time></trkpt>
<trkpt lat="46.32300303" lon="7.53409194"><ele>976.356201</ele><time>2009-05-31T11:48:38Z</time></trkpt>
<trkpt lat="46.32275510" lon="7.53386789"><ele>974.914307</ele><time>2009-05-31T11:48:49Z</time></trkpt>
<trkpt lat="46.32264035" lon="7.53377720"><ele>973.472412</ele><time>2009-05-31T11:48:52Z</time></trkpt>
<trkpt lat="46.32250263" lon="7.53367737"><ele>973.472412</ele><time>2009-05-31T11:48:56Z</time></trkpt>
<trkpt lat="46.32240130" lon="7.53364569"><ele>972.991699</ele><time>2009-05-31T11:48:59Z</time></trkpt>
<trkpt lat="46.32229032" lon="7.53342650"><ele>971.549316</ele><time>2009-05-31T11:49:05Z</time></trkpt>
<trkpt lat="46.32243432" lon="7.53304546"><ele>970.107422</ele><time>2009-05-31T11:49:17Z</time></trkpt>
<trkpt lat="46.32234195" lon="7.53257322"><ele>968.184814</ele><time>2009-05-31T11:49:29Z</time></trkpt>
<trkpt lat="46.32232108" lon="7.53235077"><ele>966.262207</ele><time>2009-05-31T11:49:38Z</time></trkpt>
<trkpt lat="46.32221522" lon="7.53231296"><ele>966.74292</ele><time>2009-05-31T11:49:42Z</time></trkpt>
<trkpt lat="46.32206107" lon="7.53229209"><ele>966.262207</ele><time>2009-05-31T11:49:49Z</time></trkpt>
<trkpt lat="46.32199142" lon="7.53222143"><ele>965.301025</ele><time>2009-05-31T11:49:52Z</time></trkpt>
<trkpt lat="46.32191917" lon="7.53207140"><ele>963.858887</ele><time>2009-05-31T11:49:57Z</time></trkpt>
<trkpt lat="46.32193627" lon="7.53183939"><ele>962.897705</ele><time>2009-05-31T11:50:05Z</time></trkpt>
<trkpt lat="46.32202319" lon="7.53173084"><ele>961.936523</ele><time>2009-05-31T11:50:11Z</time></trkpt>
<trkpt lat="46.32208706" lon="7.53165456"><ele>961.936523</ele><time>2009-05-31T11:50:14Z</time></trkpt>
<trkpt lat="46.32201372" lon="7.53144803"><ele>960.013672</ele><time>2009-05-31T11:50:22Z</time></trkpt>
<trkpt lat="46.32199125" lon="7.53124058"><ele>959.533203</ele><time>2009-05-31T11:50:28Z</time></trkpt>
<trkpt lat="46.32201849" lon="7.53105358"><ele>959.533203</ele><time>2009-05-31T11:50:34Z</time></trkpt>
<trkpt lat="46.32210994" lon="7.53083607"><ele>957.610596</ele><time>2009-05-31T11:50:40Z</time></trkpt>
<trkpt lat="46.32217046" lon="7.53060398"><ele>955.687744</ele><time>2009-05-31T11:50:48Z</time></trkpt>
<trkpt lat="46.32215973" lon="7.53056760"><ele>955.207031</ele><time>2009-05-31T11:50:50Z</time></trkpt>
<trkpt lat="46.32214615" lon="7.53050365"><ele>953.765137</ele><time>2009-05-31T11:50:52Z</time></trkpt>
<trkpt lat="46.32216744" lon="7.53024808"><ele>953.284424</ele><time>2009-05-31T11:51:00Z</time></trkpt>
<trkpt lat="46.32215638" lon="7.53017038"><ele>951.842529</ele><time>2009-05-31T11:51:03Z</time></trkpt>
<trkpt lat="46.32217566" lon="7.53007994"><ele>949.919922</ele><time>2009-05-31T11:51:08Z</time></trkpt>
<trkpt lat="46.32217507" lon="7.53000350"><ele>950.400635</ele><time>2009-05-31T11:51:12Z</time></trkpt>
<trkpt lat="46.32217205" lon="7.52985002"><ele>949.919922</ele><time>2009-05-31T11:51:22Z</time></trkpt>
<trkpt lat="46.32214305" lon="7.52980552"><ele>949.919922</ele><time>2009-05-31T11:51:25Z</time></trkpt>
<trkpt lat="46.32204917" lon="7.52967208"><ele>949.439209</ele><time>2009-05-31T11:51:37Z</time></trkpt>
<trkpt lat="46.32204113" lon="7.52982873"><ele>949.439209</ele><time>2009-05-31T11:52:38Z</time></trkpt>
<trkpt lat="46.32190215" lon="7.52977735"><ele>949.919922</ele><time>2009-05-31T11:53:17Z</time></trkpt>
<trkpt lat="46.32187550" lon="7.52977300"><ele>948.958496</ele><time>2009-05-31T11:53:20Z</time></trkpt>
<trkpt lat="46.32161264" lon="7.53017784"><ele>947.997314</ele><time>2009-05-31T11:53:33Z</time></trkpt>
<trkpt lat="46.32151189" lon="7.53029536"><ele>946.55542</ele><time>2009-05-31T11:53:43Z</time></trkpt>
<trkpt lat="46.32149924" lon="7.53029519"><ele>945.593994</ele><time>2009-05-31T11:54:09Z</time></trkpt>
<trkpt lat="46.32141810" lon="7.53034305"><ele>944.1521</ele><time>2009-05-31T11:54:13Z</time></trkpt>
<trkpt lat="46.32119288" lon="7.53051052"><ele>942.710205</ele><time>2009-05-31T11:54:23Z</time></trkpt>
<trkpt lat="46.32108173" lon="7.53054547"><ele>941.268066</ele><time>2009-05-31T11:54:28Z</time></trkpt>
<trkpt lat="46.32104619" lon="7.53050817"><ele>940.306885</ele><time>2009-05-31T11:54:30Z</time></trkpt>
<trkpt lat="46.32097537" lon="7.53021925"><ele>939.345215</ele><time>2009-05-31T11:54:40Z</time></trkpt>
<trkpt lat="46.32102583" lon="7.52985455"><ele>938.864746</ele><time>2009-05-31T11:54:50Z</time></trkpt>
<trkpt lat="46.32103035" lon="7.52957359"><ele>938.384033</ele><time>2009-05-31T11:54:58Z</time></trkpt>
<trkpt lat="46.32099087" lon="7.52942883"><ele>938.384033</ele><time>2009-05-31T11:55:02Z</time></trkpt>
<trkpt lat="46.32097126" lon="7.52935834"><ele>938.384033</ele><time>2009-05-31T11:55:04Z</time></trkpt>
<trkpt lat="46.32063892" lon="7.52918299"><ele>937.90332</ele><time>2009-05-31T11:55:16Z</time></trkpt>
<trkpt lat="46.32046323" lon="7.52882467"><ele>935.980713</ele><time>2009-05-31T11:55:29Z</time></trkpt>
<trkpt lat="46.32046239" lon="7.52880103"><ele>935.5</ele><time>2009-05-31T11:55:30Z</time></trkpt>
<trkpt lat="46.32048989" lon="7.52859467"><ele>935.980713</ele><time>2009-05-31T11:55:37Z</time></trkpt>
<trkpt lat="46.32045535" lon="7.52844312"><ele>935.5</ele><time>2009-05-31T11:55:41Z</time></trkpt>
<trkpt lat="46.32043214" lon="7.52831362"><ele>934.058105</ele><time>2009-05-31T11:55:45Z</time></trkpt>
<trkpt lat="46.32040649" lon="7.52828068"><ele>933.577393</ele><time>2009-05-31T11:55:46Z</time></trkpt>
<trkpt lat="46.32029928" lon="7.52788246"><ele>932.135498</ele><time>2009-05-31T11:55:56Z</time></trkpt>
<trkpt lat="46.32027816" lon="7.52776796"><ele>932.616211</ele><time>2009-05-31T11:55:59Z</time></trkpt>
<trkpt lat="46.32021597" lon="7.52754877"><ele>931.174316</ele><time>2009-05-31T11:56:06Z</time></trkpt>
<trkpt lat="46.32017833" lon="7.52754844"><ele>930.212891</ele><time>2009-05-31T11:56:08Z</time></trkpt>
<trkpt lat="46.32013307" lon="7.52757568"><ele>928.770996</ele><time>2009-05-31T11:56:11Z</time></trkpt>
<trkpt lat="46.32002788" lon="7.52757736"><ele>929.251465</ele><time>2009-05-31T11:56:16Z</time></trkpt>
<trkpt lat="46.31997742" lon="7.52785077"><ele>926.367676</ele><time>2009-05-31T11:56:26Z</time></trkpt>
<trkpt lat="46.31996132" lon="7.52787726"><ele>927.80957</ele><time>2009-05-31T11:56:27Z</time></trkpt>
<trkpt lat="46.31982244" lon="7.52829057"><ele>926.848389</ele><time>2009-05-31T11:56:40Z</time></trkpt>
<trkpt lat="46.31965647" lon="7.52861470"><ele>924.925781</ele><time>2009-05-31T11:56:51Z</time></trkpt>
<trkpt lat="46.31960283" lon="7.52895568"><ele>924.925781</ele><time>2009-05-31T11:57:00Z</time></trkpt>
<trkpt lat="46.31943025" lon="7.52937787"><ele>923.964111</ele><time>2009-05-31T11:57:13Z</time></trkpt>
<trkpt lat="46.31922405" lon="7.52964525"><ele>923.00293</ele><time>2009-05-31T11:57:23Z</time></trkpt>
<trkpt lat="46.31910914" lon="7.52969865"><ele>923.00293</ele><time>2009-05-31T11:57:28Z</time></trkpt>
<trkpt lat="46.31902255" lon="7.52986863"><ele>922.522217</ele><time>2009-05-31T11:57:33Z</time></trkpt>
<trkpt lat="46.31896128" lon="7.53010894"><ele>922.041504</ele><time>2009-05-31T11:57:41Z</time></trkpt>
<trkpt lat="46.31893555" lon="7.53015404"><ele>921.560791</ele><time>2009-05-31T11:57:43Z</time></trkpt>
<trkpt lat="46.31888350" lon="7.53032729"><ele>922.041504</ele><time>2009-05-31T11:57:49Z</time></trkpt>
<trkpt lat="46.31879859" lon="7.53042544"><ele>921.080322</ele><time>2009-05-31T11:57:54Z</time></trkpt>
<trkpt lat="46.31873262" lon="7.53059124"><ele>921.080322</ele><time>2009-05-31T11:58:00Z</time></trkpt>
<trkpt lat="46.31872944" lon="7.53064329"><ele>921.560791</ele><time>2009-05-31T11:58:02Z</time></trkpt>
<trkpt lat="46.31846583" lon="7.53106917"><ele>921.080322</ele><time>2009-05-31T11:58:15Z</time></trkpt>
<trkpt lat="46.31841654" lon="7.53110547"><ele>921.080322</ele><time>2009-05-31T11:58:17Z</time></trkpt>
<trkpt lat="46.31818545" lon="7.53109147"><ele>920.118896</ele><time>2009-05-31T11:58:28Z</time></trkpt>
<trkpt lat="46.31809006" lon="7.53109608"><ele>920.599609</ele><time>2009-05-31T11:58:32Z</time></trkpt>
<trkpt lat="46.31772486" lon="7.53105635"><ele>920.599609</ele><time>2009-05-31T11:58:43Z</time></trkpt>
<trkpt lat="46.31750467" lon="7.53102022"><ele>919.157715</ele><time>2009-05-31T11:58:52Z</time></trkpt>
<trkpt lat="46.31725263" lon="7.53103003"><ele>919.157715</ele><time>2009-05-31T11:59:02Z</time></trkpt>
<trkpt lat="46.31710729" lon="7.53102047"><ele>919.638428</ele><time>2009-05-31T11:59:07Z</time></trkpt>
<trkpt lat="46.31689765" lon="7.53098343"><ele>918.196289</ele><time>2009-05-31T11:59:15Z</time></trkpt>
<trkpt lat="46.31678089" lon="7.53082979"><ele>918.677002</ele><time>2009-05-31T11:59:21Z</time></trkpt>
<trkpt lat="46.31670596" lon="7.53063616"><ele>917.715576</ele><time>2009-05-31T11:59:27Z</time></trkpt>
<trkpt lat="46.31668769" lon="7.53047523"><ele>917.235107</ele><time>2009-05-31T11:59:31Z</time></trkpt>
<trkpt lat="46.31654905" lon="7.53008245"><ele>917.235107</ele><time>2009-05-31T11:59:41Z</time></trkpt>
<trkpt lat="46.31650178" lon="7.53000836"><ele>916.754395</ele><time>2009-05-31T11:59:44Z</time></trkpt>
<trkpt lat="46.31635853" lon="7.52988489"><ele>916.754395</ele><time>2009-05-31T11:59:52Z</time></trkpt>
<trkpt lat="46.31631779" lon="7.52998916"><ele>916.273682</ele><time>2009-05-31T11:59:55Z</time></trkpt>
<trkpt lat="46.31623398" lon="7.53002227"><ele>915.793213</ele><time>2009-05-31T12:00:00Z</time></trkpt>
<trkpt lat="46.31611437" lon="7.53016862"><ele>914.831787</ele><time>2009-05-31T12:00:07Z</time></trkpt>
<trkpt lat="46.31589937" lon="7.53020894"><ele>914.351074</ele><time>2009-05-31T12:00:17Z</time></trkpt>
<trkpt lat="46.31588110" lon="7.53021112"><ele>914.351074</ele><time>2009-05-31T12:00:18Z</time></trkpt>
<trkpt lat="46.31558329" lon="7.53025026"><ele>913.870361</ele><time>2009-05-31T12:00:31Z</time></trkpt>
<trkpt lat="46.31555186" lon="7.53025412"><ele>913.389893</ele><time>2009-05-31T12:00:32Z</time></trkpt>
<trkpt lat="46.31540316" lon="7.53022713"><ele>914.351074</ele><time>2009-05-31T12:00:37Z</time></trkpt>
<trkpt lat="46.31524223" lon="7.53027172"><ele>914.351074</ele><time>2009-05-31T12:00:41Z</time></trkpt>
<trkpt lat="46.31502380" lon="7.53050189"><ele>913.389893</ele><time>2009-05-31T12:00:52Z</time></trkpt>
<trkpt lat="46.31484308" lon="7.53071705"><ele>913.389893</ele><time>2009-05-31T12:01:01Z</time></trkpt>
<trkpt lat="46.31458836" lon="7.53045855"><ele>912.90918</ele><time>2009-05-31T12:01:13Z</time></trkpt>
<trkpt lat="46.31435844" lon="7.53026635"><ele>911.947998</ele><time>2009-05-31T12:01:22Z</time></trkpt>
<trkpt lat="46.31433095" lon="7.53025328"><ele>911.467285</ele><time>2009-05-31T12:01:23Z</time></trkpt>
<trkpt lat="46.31428694" lon="7.53025378"><ele>912.428467</ele><time>2009-05-31T12:01:25Z</time></trkpt>
<trkpt lat="46.31425509" lon="7.53025227"><ele>911.467285</ele><time>2009-05-31T12:01:27Z</time></trkpt>
<trkpt lat="46.31403976" lon="7.53020525"><ele>911.947998</ele><time>2009-05-31T12:01:38Z</time></trkpt>
<trkpt lat="46.31381219" lon="7.53032838"><ele>911.467285</ele><time>2009-05-31T12:01:47Z</time></trkpt>
<trkpt lat="46.31357029" lon="7.53040348"><ele>911.947998</ele><time>2009-05-31T12:01:58Z</time></trkpt>
<trkpt lat="46.31346862" lon="7.53073214"><ele>912.428467</ele><time>2009-05-31T12:02:07Z</time></trkpt>
<trkpt lat="46.31330006" lon="7.53098384"><ele>910.986572</ele><time>2009-05-31T12:02:16Z</time></trkpt>
<trkpt lat="46.31318623" lon="7.53114955"><ele>910.505859</ele><time>2009-05-31T12:02:27Z</time></trkpt>
<trkpt lat="46.31320987" lon="7.53110982"><ele>910.986572</ele><time>2009-05-31T12:02:43Z</time></trkpt>
<trkpt lat="46.31322512" lon="7.53104914"><ele>910.025146</ele><time>2009-05-31T12:03:11Z</time></trkpt>
<trkpt lat="46.31322999" lon="7.53105065"><ele>910.505859</ele><time>2009-05-31T12:03:43Z</time></trkpt>
<trkpt lat="46.31323074" lon="7.53091872"><ele>910.986572</ele><time>2009-05-31T12:04:06Z</time></trkpt>
<trkpt lat="46.31327935" lon="7.53089357"><ele>910.986572</ele><time>2009-05-31T12:04:19Z</time></trkpt>
<trkpt lat="46.31325924" lon="7.53097018"><ele>911.467285</ele><time>2009-05-31T12:04:40Z</time></trkpt>
<trkpt lat="46.31312865" lon="7.53114712"><ele>908.102783</ele><time>2009-05-31T12:04:55Z</time></trkpt>
<trkpt lat="46.31310300" lon="7.53135189"><ele>904.737793</ele><time>2009-05-31T12:05:07Z</time></trkpt>
<trkpt lat="46.31310694" lon="7.53137897"><ele>904.257324</ele><time>2009-05-31T12:05:09Z</time></trkpt>
<trkpt lat="46.31320828" lon="7.53150855"><ele>903.776611</ele><time>2009-05-31T12:05:20Z</time></trkpt>
<trkpt lat="46.31328179" lon="7.53158826"><ele>900.892578</ele><time>2009-05-31T12:05:30Z</time></trkpt>
<trkpt lat="46.31333459" lon="7.53171659"><ele>898.008789</ele><time>2009-05-31T12:05:40Z</time></trkpt>
<trkpt lat="46.31338966" lon="7.53172145"><ele>895.605469</ele><time>2009-05-31T12:05:45Z</time></trkpt>
<trkpt lat="46.31337558" lon="7.53180158"><ele>893.682861</ele><time>2009-05-31T12:05:53Z</time></trkpt>
<trkpt lat="46.31340148" lon="7.53182086"><ele>892.240967</ele><time>2009-05-31T12:05:56Z</time></trkpt>
<trkpt lat="46.31342327" lon="7.53183637"><ele>891.76001</ele><time>2009-05-31T12:05:59Z</time></trkpt>
<trkpt lat="46.31351413" lon="7.53191398"><ele>887.434082</ele><time>2009-05-31T12:06:12Z</time></trkpt>
<trkpt lat="46.31345135" lon="7.53201063"><ele>885.031006</ele><time>2009-05-31T12:06:24Z</time></trkpt>
<trkpt lat="46.31348622" lon="7.53212320"><ele>882.627686</ele><time>2009-05-31T12:06:35Z</time></trkpt>
<trkpt lat="46.31345772" lon="7.53220165"><ele>882.627686</ele><time>2009-05-31T12:06:54Z</time></trkpt>
<trkpt lat="46.31345714" lon="7.53223484"><ele>883.108154</ele><time>2009-05-31T12:07:10Z</time></trkpt>
</trkseg></trk></gpx>